Observation data for Bootleg on 09/22/2019      Previous  Date  Next       Current Mesonet Observations  Soil Data  Daily Summary Page  Observations in Plain Language
KBO1 220500Z 18013KT 17/17 A3005 RMK A01 T01650165  RH  100%=      5-min Rain = 0
KBO1 220501Z 18013KT 17/17 A3005 RMK A01 T01650165  RH  100%=      5-min Rain = 0
KBO1 220502Z 19013KT 16/16 A3005 RMK A01 T01640164  RH  100%=      5-min Rain = 0
KBO1 220503Z 18014KT 17/17 A3005 RMK A01 T01650165  RH  100%=      5-min Rain = 0
KBO1 220504Z 19014KT 17/16 A3005 RMK A01 T01650164  RH  099%=      5-min Rain = 0
KBO1 220505Z 19012KT 17/16 A3005 RMK A01 T01650163  RH  099%=      5-min Rain = 0
KBO1 220506Z 19011KT 17/16 A3005 RMK A01 T01650163  RH  099%=      5-min Rain = 0
KBO1 220507Z 19012KT 17/16 A3005 RMK A01 T01650163  RH  099%=      5-min Rain = 0
KBO1 220508Z 19012KT 16/16 A3005 RMK A01 T01640162  RH  099%=      5-min Rain = 0
KBO1 220509Z 19013KT 16/16 A3005 RMK A01 T01640162  RH  099%=      5-min Rain = 0
KBO1 220510Z 19012KT 17/16 A3005 RMK A01 T01650162  RH  099%=      5-min Rain = 0
KBO1 220511Z 18012KT 16/16 A3005 RMK A01 T01640162  RH  098%=      5-min Rain = 0
KBO1 220512Z 19012KT 16/16 A3005 RMK A01 T01640162  RH  098%=      5-min Rain = 0
KBO1 220513Z 19012KT 16/16 A3005 RMK A01 T01640161  RH  099%=      5-min Rain = 0
KBO1 220514Z 19011KT 16/16 A3005 RMK A01 T01640161  RH  099%=      5-min Rain = 0
KBO1 220515Z 19011KT 16/16 A3005 RMK A01 T01640161  RH  099%=      5-min Rain = 0
KBO1 220516Z 19011KT 16/16 A3005 RMK A01 T01630161  RH  099%=      5-min Rain = 0
KBO1 220517Z 19010KT 16/16 A3005 RMK A01 T01630161  RH  099%=      5-min Rain = 0
KBO1 220518Z 19011KT 16/16 A3005 RMK A01 T01630161  RH  098%=      5-min Rain = 0
KBO1 220519Z 19011KT 16/16 A3005 RMK A01 T01630161  RH  098%=      5-min Rain = 0
KBO1 220520Z 19011KT 16/16 A3005 RMK A01 T01630160  RH  098%=      5-min Rain = 0
KBO1 220521Z 19012KT 16/16 A3005 RMK A01 T01630160  RH  098%=      5-min Rain = 0
KBO1 220522Z 19011KT 16/16 A3005 RMK A01 T01630159  RH  098%=      5-min Rain = 0
KBO1 220523Z 19011KT 16/16 A3005 RMK A01 T01630158  RH  097%=      5-min Rain = 0
KBO1 220524Z 19011KT 16/16 A3005 RMK A01 T01630158  RH  097%=      5-min Rain = 0
KBO1 220525Z 19011KT 16/16 A3005 RMK A01 T01630158  RH  097%=      5-min Rain = 0
KBO1 220526Z 19011KT 16/16 A3005 RMK A01 T01630158  RH  097%=      5-min Rain = 0
KBO1 220527Z 19011KT 16/16 A3005 RMK A01 T01630157  RH  097%=      5-min Rain = 0
KBO1 220528Z 19011KT 16/16 A3005 RMK A01 T01620157  RH  097%=      5-min Rain = 0
KBO1 220529Z 19011KT 16/16 A3005 RMK A01 T01620157  RH  096%=      5-min Rain = 0
KBO1 220530Z 19011KT 16/16 A3005 RMK A01 T01620156  RH  096%=      5-min Rain = 0
KBO1 220531Z 19012KT 16/16 A3005 RMK A01 T01620156  RH  096%=      5-min Rain = 0
KBO1 220532Z 18011KT 16/16 A3005 RMK A01 T01630156  RH  096%=      5-min Rain = 0
KBO1 220533Z 19012KT 16/16 A3005 RMK A01 T01620156  RH  096%=      5-min Rain = 0
KBO1 220534Z 18012KT 16/16 A3005 RMK A01 T01620155  RH  095%=      5-min Rain = 0
KBO1 220535Z 18012KT 16/15 A3005 RMK A01 T01620154  RH  095%=      5-min Rain = 0
KBO1 220536Z 19012KT 16/15 A3005 RMK A01 T01620154  RH  095%=      5-min Rain = 0
KBO1 220537Z 19012KT 16/15 A3005 RMK A01 T01620153  RH  094%=      5-min Rain = 0
KBO1 220538Z 19012KT 16/15 A3005 RMK A01 T01620152  RH  094%=      5-min Rain = 0
KBO1 220539Z 18012KT 16/15 A3005 RMK A01 T01620152  RH  093%=      5-min Rain = 0
KBO1 220540Z 19012KT 16/15 A3005 RMK A01 T01620151  RH  093%=      5-min Rain = 0
KBO1 220541Z 19012KT 16/15 A3005 RMK A01 T01620151  RH  093%=      5-min Rain = 0
KBO1 220542Z 19012KT 16/15 A3005 RMK A01 T01620150  RH  092%=      5-min Rain = 0
KBO1 220543Z 18013KT 16/15 A3005 RMK A01 T01620150  RH  092%=      5-min Rain = 0
KBO1 220544Z 18013KT 16/15 A3005 RMK A01 T01620149  RH  092%=      5-min Rain = 0
KBO1 220545Z 19013KT 16/15 A3005 RMK A01 T01630148  RH  091%=      5-min Rain = 0
KBO1 220546Z 19013KT 16/15 A3005 RMK A01 T01630148  RH  091%=      5-min Rain = 0
KBO1 220547Z 19013KT 16/15 A3005 RMK A01 T01630147  RH  090%=      5-min Rain = 0
KBO1 220548Z 19013KT 16/15 A3005 RMK A01 T01630147  RH  090%=      5-min Rain = 0
KBO1 220549Z 19013KT 16/15 A3005 RMK A01 T01630147  RH  090%=      5-min Rain = 0
KBO1 220550Z 19013KT 16/15 A3005 RMK A01 T01630147  RH  090%=      5-min Rain = 0
KBO1 220551Z 19014KT 16/15 A3005 RMK A01 T01630146  RH  090%=      5-min Rain = 0
KBO1 220552Z 19013KT 16/15 A3005 RMK A01 T01630146  RH  090%=      5-min Rain = 0
KBO1 220553Z 19014KT 16/15 A3005 RMK A01 T01630146  RH  090%=      5-min Rain = 0
KBO1 220554Z 19013KT 16/15 A3005 RMK A01 T01630147  RH  090%=      5-min Rain = 0
KBO1 220555Z 19014KT 16/15 A3005 RMK A01 T01630147  RH  090%=      5-min Rain = 0
KBO1 220556Z 19014KT 16/15 A3005 RMK A01 T01640147  RH  090%=      5-min Rain = 0
KBO1 220557Z 19013KT 16/15 A3005 RMK A01 T01640148  RH  090%=      5-min Rain = 0
KBO1 220558Z 19013KT 16/15 A3005 RMK A01 T01640148  RH  090%=      5-min Rain = 0
KBO1 220559Z 19015KT 16/15 A3005 RMK A01 T01630148  RH  091%=      5-min Rain = 0
KBO1 220600Z 19015KT 16/15 A3005 RMK A01 T01630149  RH  091%=      5-min Rain = 0
KBO1 220601Z 19015KT 16/15 A3005 RMK A01 T01630148  RH  091%=      5-min Rain = 0
KBO1 220602Z 19014KT 16/15 A3005 RMK A01 T01630149  RH  091%=      5-min Rain = 0
KBO1 220603Z 19015KT 16/15 A3005 RMK A01 T01630149  RH  091%=      5-min Rain = 0
KBO1 220604Z 19015KT 16/15 A3005 RMK A01 T01630149  RH  091%=      5-min Rain = 0
KBO1 220605Z 19015KT 16/15 A3005 RMK A01 T01630149  RH  091%=      5-min Rain = 0
KBO1 220606Z 19015KT 16/15 A3005 RMK A01 T01640148  RH  091%=      5-min Rain = 0
KBO1 220607Z 19015KT 16/15 A3005 RMK A01 T01640149  RH  091%=      5-min Rain = 0
KBO1 220608Z 19014KT 16/15 A3005 RMK A01 T01640148  RH  091%=      5-min Rain = 0
KBO1 220609Z 19015KT 16/15 A3005 RMK A01 T01640149  RH  091%=      5-min Rain = 0
KBO1 220610Z 19016KT 16/15 A3004 RMK A01 T01640148  RH  091%=      5-min Rain = 0
KBO1 220611Z 18015KT 16/15 A3004 RMK A01 T01640148  RH  091%=      5-min Rain = 0
KBO1 220612Z 19014KT 16/15 A3005 RMK A01 T01640148  RH  091%=      5-min Rain = 0
KBO1 220613Z 18015KT 16/15 A3005 RMK A01 T01640149  RH  091%=      5-min Rain = 0
KBO1 220614Z 18015KT 16/15 A3005 RMK A01 T01640148  RH  091%=      5-min Rain = 0
KBO1 220615Z 18014KT 16/15 A3005 RMK A01 T01640149  RH  091%=      5-min Rain = 0
KBO1 220616Z 18015KT 16/15 A3005 RMK A01 T01640149  RH  091%=      5-min Rain = 0
KBO1 220617Z 18014KT 16/15 A3005 RMK A01 T01630149  RH  091%=      5-min Rain = 0
KBO1 220618Z 18015KT 16/15 A3005 RMK A01 T01630149  RH  091%=      5-min Rain = 0
KBO1 220619Z 18015KT 16/15 A3005 RMK A01 T01630149  RH  091%=      5-min Rain = 0
KBO1 220620Z 18014KT 16/15 A3004 RMK A01 T01630149  RH  091%=      5-min Rain = 0
KBO1 220621Z 18014KT 16/15 A3004 RMK A01 T01630150  RH  092%=      5-min Rain = 0
KBO1 220622Z 18014KT 16/15 A3004 RMK A01 T01630150  RH  092%=      5-min Rain = 0
KBO1 220623Z 18014KT 16/15 A3004 RMK A01 T01630150  RH  092%=      5-min Rain = 0
KBO1 220624Z 18013KT 16/15 A3004 RMK A01 T01630151  RH  093%=      5-min Rain = 0
KBO1 220625Z 18013KT 16/15 A3004 RMK A01 T01620151  RH  093%=      5-min Rain = 0
KBO1 220626Z 18014KT 16/15 A3004 RMK A01 T01620151  RH  093%=      5-min Rain = 0
KBO1 220627Z 18013KT 16/15 A3005 RMK A01 T01620151  RH  093%=      5-min Rain = 0
KBO1 220628Z 18012KT 16/15 A3005 RMK A01 T01620151  RH  094%=      5-min Rain = 0
KBO1 220629Z 19013KT 16/15 A3005 RMK A01 T01610151  RH  094%=      5-min Rain = 0
KBO1 220630Z 19014KT 16/15 A3005 RMK A01 T01610151  RH  094%=      5-min Rain = 0
KBO1 220631Z 19013KT 16/15 A3005 RMK A01 T01610152  RH  094%=      5-min Rain = 0
KBO1 220632Z 19014KT 16/15 A3005 RMK A01 T01610152  RH  094%=      5-min Rain = 0
KBO1 220633Z 19013KT 16/15 A3005 RMK A01 T01610152  RH  095%=      5-min Rain = 0
KBO1 220634Z 19014KT 16/15 A3005 RMK A01 T01610152  RH  095%=      5-min Rain = 0
KBO1 220635Z 20013KT 16/15 A3005 RMK A01 T01610152  RH  095%=      5-min Rain = 0
KBO1 220636Z 20014KT 16/15 A3005 RMK A01 T01600152  RH  095%=      5-min Rain = 0
KBO1 220637Z 20014KT 16/15 A3005 RMK A01 T01610152  RH  095%=      5-min Rain = 0
KBO1 220638Z 20014KT 16/15 A3005 RMK A01 T01600151  RH  094%=      5-min Rain = 0
KBO1 220639Z 20013KT 16/15 A3005 RMK A01 T01610151  RH  094%=      5-min Rain = 0
KBO1 220640Z 20014KT 16/15 A3005 RMK A01 T01610152  RH  094%=      5-min Rain = 0
KBO1 220641Z 20015KT 16/15 A3005 RMK A01 T01610152  RH  094%=      5-min Rain = 0
KBO1 220642Z 20015KT 16/15 A3005 RMK A01 T01610152  RH  094%=      5-min Rain = 0
KBO1 220643Z 20015KT 16/15 A3004 RMK A01 T01620152  RH  094%=      5-min Rain = 0
KBO1 220644Z 20015KT 16/15 A3004 RMK A01 T01620152  RH  094%=      5-min Rain = 0
KBO1 220645Z 20015KT 16/15 A3004 RMK A01 T01620152  RH  094%=      5-min Rain = 0
KBO1 220646Z 20015KT 16/15 A3004 RMK A01 T01620152  RH  094%=      5-min Rain = 0
KBO1 220647Z 20015KT 16/15 A3004 RMK A01 T01620152  RH  094%=      5-min Rain = 0
KBO1 220648Z 20014KT 16/15 A3004 RMK A01 T01620152  RH  094%=      5-min Rain = 0
KBO1 220649Z 20014KT 16/15 A3004 RMK A01 T01620152  RH  094%=      5-min Rain = 0
KBO1 220650Z 20013KT 16/15 A3004 RMK A01 T01610152  RH  094%=      5-min Rain = 0
KBO1 220651Z 20013KT 16/15 A3004 RMK A01 T01610153  RH  095%=      5-min Rain = 0
KBO1 220652Z 20014KT 16/15 A3004 RMK A01 T01610153  RH  095%=      5-min Rain = 0
KBO1 220653Z 20013KT 16/15 A3004 RMK A01 T01600153  RH  095%=      5-min Rain = 0
KBO1 220654Z 20014KT 16/15 A3004 RMK A01 T01600153  RH  096%=      5-min Rain = 0
KBO1 220655Z 20013KT 16/15 A3004 RMK A01 T01600153  RH  096%=      5-min Rain = 0
KBO1 220656Z 20014KT 16/15 A3004 RMK A01 T01600153  RH  096%=      5-min Rain = 0
KBO1 220657Z 20012KT 16/15 A3004 RMK A01 T01600153  RH  096%=      5-min Rain = 0
KBO1 220658Z 20014KT 16/15 A3004 RMK A01 T01590153  RH  096%=      5-min Rain = 0
KBO1 220659Z 20013KT 16/15 A3004 RMK A01 T01590154  RH  096%=      5-min Rain = 0
KBO1 220700Z 20014KT 16/15 A3004 RMK A01 T01590154  RH  096%=      5-min Rain = 0
KBO1 220701Z 20014KT 16/15 A3004 RMK A01 T01590153  RH  096%=      5-min Rain = 0
KBO1 220702Z 20014KT 16/15 A3004 RMK A01 T01590153  RH  096%=      5-min Rain = 0
KBO1 220703Z 20013KT 16/15 A3004 RMK A01 T01590153  RH  096%=      5-min Rain = 0
KBO1 220704Z 20013KT 16/15 A3004 RMK A01 T01600153  RH  096%=      5-min Rain = 0
KBO1 220705Z 20013KT 16/15 A3004 RMK A01 T01600154  RH  096%=      5-min Rain = 0
KBO1 220706Z 20013KT 16/15 A3004 RMK A01 T01600154  RH  096%=      5-min Rain = 0
KBO1 220707Z 20013KT 16/15 A3004 RMK A01 T01600154  RH  096%=      5-min Rain = 0
KBO1 220708Z 20013KT 16/15 A3004 RMK A01 T01600153  RH  096%=      5-min Rain = 0
KBO1 220709Z 20012KT 16/15 A3004 RMK A01 T01600154  RH  096%=      5-min Rain = 0
KBO1 220710Z 20013KT 16/15 A3004 RMK A01 T01590153  RH  096%=      5-min Rain = 0
KBO1 220711Z 20012KT 16/15 A3004 RMK A01 T01590153  RH  096%=      5-min Rain = 0
KBO1 220712Z 20013KT 16/15 A3004 RMK A01 T01590153  RH  096%=      5-min Rain = 0
KBO1 220713Z 21013KT 16/15 A3004 RMK A01 T01590153  RH  096%=      5-min Rain = 0
KBO1 220714Z 20013KT 16/15 A3004 RMK A01 T01590153  RH  096%=      5-min Rain = 0
KBO1 220715Z 20013KT 16/15 A3004 RMK A01 T01590152  RH  096%=      5-min Rain = 0
KBO1 220716Z 21014KT 16/15 A3004 RMK A01 T01600152  RH  095%=      5-min Rain = 0
KBO1 220717Z 20013KT 16/15 A3004 RMK A01 T01600152  RH  095%=      5-min Rain = 0
KBO1 220718Z 20013KT 16/15 A3004 RMK A01 T01600152  RH  095%=      5-min Rain = 0
KBO1 220719Z 20013KT 16/15 A3004 RMK A01 T01600152  RH  095%=      5-min Rain = 0
KBO1 220720Z 20013KT 16/15 A3004 RMK A01 T01600151  RH  094%=      5-min Rain = 0
KBO1 220721Z 20013KT 16/15 A3004 RMK A01 T01600151  RH  094%=      5-min Rain = 0
KBO1 220722Z 20013KT 16/15 A3004 RMK A01 T01600151  RH  094%=      5-min Rain = 0
KBO1 220723Z 20013KT 16/15 A3004 RMK A01 T01600151  RH  095%=      5-min Rain = 0
KBO1 220724Z 20013KT 16/15 A3004 RMK A01 T01600152  RH  095%=      5-min Rain = 0
KBO1 220725Z 20013KT 16/15 A3004 RMK A01 T01600152  RH  095%=      5-min Rain = 0
KBO1 220726Z 20014KT 16/15 A3004 RMK A01 T01600152  RH  095%=      5-min Rain = 0
KBO1 220727Z 20012KT 16/15 A3004 RMK A01 T01600151  RH  095%=      5-min Rain = 0
KBO1 220728Z 20013KT 16/15 A3004 RMK A01 T01600151  RH  095%=      5-min Rain = 0
KBO1 220729Z 19013KT 16/15 A3004 RMK A01 T01600152  RH  095%=      5-min Rain = 0
KBO1 220730Z 19013KT 16/15 A3004 RMK A01 T01590152  RH  095%=      5-min Rain = 0
KBO1 220731Z 19013KT 16/15 A3004 RMK A01 T01590152  RH  095%=      5-min Rain = 0
KBO1 220732Z 19012KT 16/15 A3004 RMK A01 T01590152  RH  096%=      5-min Rain = 0
KBO1 220733Z 20012KT 16/15 A3004 RMK A01 T01590152  RH  096%=      5-min Rain = 0
KBO1 220734Z 20012KT 16/15 A3004 RMK A01 T01590152  RH  096%=      5-min Rain = 0
KBO1 220735Z 20012KT 16/15 A3004 RMK A01 T01590152  RH  096%=      5-min Rain = 0
KBO1 220736Z 20013KT 16/15 A3004 RMK A01 T01590152  RH  096%=      5-min Rain = 0
KBO1 220737Z 20013KT 16/15 A3004 RMK A01 T01590152  RH  096%=      5-min Rain = 0
KBO1 220738Z 20013KT 16/15 A3004 RMK A01 T01590152  RH  096%=      5-min Rain = 0
KBO1 220739Z 20014KT 16/15 A3004 RMK A01 T01590152  RH  096%=      5-min Rain = 0
KBO1 220740Z 20013KT 16/15 A3004 RMK A01 T01600152  RH  095%=      5-min Rain = 0
KBO1 220741Z 20014KT 16/15 A3004 RMK A01 T01600152  RH  095%=      5-min Rain = 0
KBO1 220742Z 20013KT 16/15 A3004 RMK A01 T01600152  RH  095%=      5-min Rain = 0
KBO1 220743Z 20014KT 16/15 A3004 RMK A01 T01600153  RH  095%=      5-min Rain = 0
KBO1 220744Z 20013KT 16/15 A3004 RMK A01 T01600153  RH  096%=      5-min Rain = 0
KBO1 220745Z 20013KT 16/15 A3004 RMK A01 T01600153  RH  096%=      5-min Rain = 0
KBO1 220746Z 20013KT 16/15 A3004 RMK A01 T01590153  RH  096%=      5-min Rain = 0
KBO1 220747Z 20013KT 16/15 A3004 RMK A01 T01590153  RH  096%=      5-min Rain = 0
KBO1 220748Z 20013KT 16/15 A3004 RMK A01 T01590153  RH  096%=      5-min Rain = 0
KBO1 220749Z 20013KT 16/15 A3004 RMK A01 T01590152  RH  096%=      5-min Rain = 0
KBO1 220750Z 20013KT 16/15 A3004 RMK A01 T01590153  RH  096%=      5-min Rain = 0
KBO1 220751Z 21013KT 16/15 A3004 RMK A01 T01590152  RH  096%=      5-min Rain = 0
KBO1 220752Z 20013KT 16/15 A3004 RMK A01 T01590153  RH  096%=      5-min Rain = 0
KBO1 220753Z 20013KT 16/15 A3004 RMK A01 T01590152  RH  096%=      5-min Rain = 0
KBO1 220754Z 20013KT 16/15 A3004 RMK A01 T01590152  RH  096%=      5-min Rain = 0
KBO1 220755Z 21012KT 16/15 A3004 RMK A01 T01580152  RH  096%=      5-min Rain = 0
KBO1 220756Z 21013KT 16/15 A3004 RMK A01 T01580152  RH  096%=      5-min Rain = 0
KBO1 220757Z 20013KT 16/15 A3004 RMK A01 T01580152  RH  096%=      5-min Rain = 0
KBO1 220758Z 20012KT 16/15 A3004 RMK A01 T01580152  RH  096%=      5-min Rain = 0
KBO1 220759Z 20012KT 16/15 A3003 RMK A01 T01580153  RH  097%=      5-min Rain = 0
KBO1 220800Z 20013KT 16/15 A3003 RMK A01 T01580153  RH  097%=      5-min Rain = 0
KBO1 220801Z 20012KT 16/15 A3003 RMK A01 T01570153  RH  097%=      5-min Rain = 0
KBO1 220802Z 20012KT 16/15 A3004 RMK A01 T01570153  RH  097%=      5-min Rain = 0
KBO1 220803Z 20012KT 16/15 A3004 RMK A01 T01570153  RH  098%=      5-min Rain = 0
KBO1 220804Z 20013KT 16/15 A3004 RMK A01 T01570154  RH  098%=      5-min Rain = 0
KBO1 220805Z 20013KT 16/15 A3004 RMK A01 T01570154  RH  098%=      5-min Rain = 0
KBO1 220806Z 20012KT 16/15 A3004 RMK A01 T01570154  RH  098%=      5-min Rain = 0
KBO1 220807Z 20013KT 16/16 A3004 RMK A01 T01570155  RH  098%=      5-min Rain = 0
KBO1 220808Z 20013KT 16/16 A3004 RMK A01 T01570155  RH  098%=      5-min Rain = 0
KBO1 220809Z 20012KT 16/16 A3004 RMK A01 T01580155  RH  098%=      5-min Rain = 0
KBO1 220810Z 21012KT 16/15 A3004 RMK A01 T01580154  RH  098%=      5-min Rain = 0
KBO1 220811Z 21012KT 16/15 A3004 RMK A01 T01580154  RH  097%=      5-min Rain = 0
KBO1 220812Z 21012KT 16/15 A3004 RMK A01 T01580154  RH  097%=      5-min Rain = 0
KBO1 220813Z 21011KT 16/15 A3004 RMK A01 T01580153  RH  097%=      5-min Rain = 0
KBO1 220814Z 21010KT 16/15 A3004 RMK A01 T01580153  RH  097%=      5-min Rain = 0
KBO1 220815Z 21010KT 16/15 A3004 RMK A01 T01580153  RH  097%=      5-min Rain = 0
KBO1 220816Z 21010KT 16/15 A3004 RMK A01 T01580153  RH  097%=      5-min Rain = 0
KBO1 220817Z 20010KT 16/15 A3004 RMK A01 T01580153  RH  097%=      5-min Rain = 0
KBO1 220818Z 20009KT 16/15 A3004 RMK A01 T01570153  RH  097%=      5-min Rain = 0
KBO1 220819Z 20009KT 16/15 A3004 RMK A01 T01570153  RH  097%=      5-min Rain = 0
KBO1 220820Z 20009KT 16/15 A3004 RMK A01 T01570153  RH  097%=      5-min Rain = 0
KBO1 220821Z 20008KT 16/15 A3004 RMK A01 T01560153  RH  098%=      5-min Rain = 0
KBO1 220822Z 20008KT 16/15 A3004 RMK A01 T01560153  RH  098%=      5-min Rain = 0
KBO1 220823Z 19008KT 16/15 A3004 RMK A01 T01560152  RH  098%=      5-min Rain = 0
KBO1 220824Z 19008KT 16/15 A3004 RMK A01 T01560153  RH  098%=      5-min Rain = 0
KBO1 220825Z 19007KT 16/15 A3004 RMK A01 T01560153  RH  098%=      5-min Rain = 0
KBO1 220826Z 19007KT 16/15 A3004 RMK A01 T01560153  RH  098%=      5-min Rain = 0
KBO1 220827Z 18007KT 16/15 A3004 RMK A01 T01560152  RH  098%=      5-min Rain = 0
KBO1 220828Z 18006KT 16/15 A3004 RMK A01 T01560152  RH  098%=      5-min Rain = 0
KBO1 220829Z 18006KT 16/15 A3004 RMK A01 T01560152  RH  098%=      5-min Rain = 0
KBO1 220830Z 18006KT 16/15 A3004 RMK A01 T01550152  RH  098%=      5-min Rain = 0
KBO1 220831Z 17006KT 16/15 A3004 RMK A01 T01550152  RH  098%=      5-min Rain = 0
KBO1 220832Z 17005KT 16/15 A3005 RMK A01 T01550152  RH  098%=      5-min Rain = 0
KBO1 220833Z 17004KT 16/15 A3005 RMK A01 T01550151  RH  098%=      5-min Rain = 0
KBO1 220834Z 16005KT 15/15 A3005 RMK A01 T01540151  RH  098%=      5-min Rain = 0
KBO1 220835Z 16004KT 15/15 A3005 RMK A01 T01540151  RH  098%=      5-min Rain = 0
KBO1 220836Z 15003KT 15/15 A3005 RMK A01 T01530151  RH  098%=      5-min Rain = 0
KBO1 220837Z 15002KT 15/15 A3005 RMK A01 T01530151  RH  099%=      5-min Rain = 0
KBO1 220838Z 14002KT 15/15 A3005 RMK A01 T01530151  RH  099%=      5-min Rain = 0
KBO1 220839Z 13001KT 15/15 A3005 RMK A01 T01530151  RH  099%=      5-min Rain = 0
KBO1 220840Z 10001KT 15/15 A3005 RMK A01 T01520151  RH  099%=      5-min Rain = 0
KBO1 220841Z 12001KT 15/15 A3005 RMK A01 T01520152  RH  100%=      5-min Rain = 0
KBO1 220842Z 12001KT 15/15 A3005 RMK A01 T01520152  RH  100%=      5-min Rain = 0
KBO1 220843Z 12002KT 15/15 A3005 RMK A01 T01510151  RH  100%=      5-min Rain = 0
KBO1 220844Z 13002KT 15/15 A3005 RMK A01 T01510151  RH  100%=      5-min Rain = 0
KBO1 220845Z 15003KT 15/15 A3005 RMK A01 T01510151  RH  100%=      5-min Rain = 0
KBO1 220846Z 15003KT 15/15 A3005 RMK A01 T01510151  RH  100%=      5-min Rain = 0
KBO1 220847Z 15003KT 15/15 A3005 RMK A01 T01510151  RH  100%=      5-min Rain = 0
KBO1 220848Z 16003KT 15/15 A3005 RMK A01 T01510151  RH  100%=      5-min Rain = 0
KBO1 220849Z 16004KT 15/15 A3005 RMK A01 T01510151  RH  100%=      5-min Rain = 0
KBO1 220850Z 17004KT 15/15 A3005 RMK A01 T01510151  RH  100%=      5-min Rain = 0
KBO1 220851Z 18004KT 15/15 A3005 RMK A01 T01510151  RH  100%=      5-min Rain = 0
KBO1 220852Z 18005KT 15/15 A3005 RMK A01 T01510151  RH  100%=      5-min Rain = 0
KBO1 220853Z 18004KT 15/15 A3005 RMK A01 T01510151  RH  100%=      5-min Rain = 0
KBO1 220854Z 18004KT 15/15 A3005 RMK A01 T01520152  RH  100%=      5-min Rain = 0
KBO1 220855Z 19004KT 15/15 A3005 RMK A01 T01520152  RH  100%=      5-min Rain = 0
KBO1 220856Z 19004KT 15/15 A3005 RMK A01 T01520152  RH  100%=      5-min Rain = 0
KBO1 220857Z 19004KT 15/15 A3005 RMK A01 T01530153  RH  100%=      5-min Rain = 0
KBO1 220858Z 19004KT 15/15 A3005 RMK A01 T01520152  RH  100%=      5-min Rain = 0
KBO1 220859Z 19004KT 15/15 A3005 RMK A01 T01520153  RH  100%=      5-min Rain = 0
KBO1 220900Z 19005KT 15/15 A3004 RMK A01 T01530153  RH  100%=      5-min Rain = 0
KBO1 220901Z 19005KT 15/15 A3004 RMK A01 T01530153  RH  100%=      5-min Rain = 0
KBO1 220902Z 19005KT 15/15 A3004 RMK A01 T01530153  RH  100%=      5-min Rain = 0
KBO1 220903Z 18005KT 15/15 A3004 RMK A01 T01530153  RH  100%=      5-min Rain = 0
KBO1 220904Z 19006KT 15/15 A3004 RMK A01 T01530153  RH  100%=      5-min Rain = 0
KBO1 220905Z 19006KT 15/15 A3004 RMK A01 T01530153  RH  100%=      5-min Rain = 0
KBO1 220906Z 18006KT 15/15 A3004 RMK A01 T01530153  RH  100%=      5-min Rain = 0
KBO1 220907Z 18006KT 15/15 A3004 RMK A01 T01530153  RH  100%=      5-min Rain = 0
KBO1 220908Z 18006KT 15/15 A3004 RMK A01 T01530153  RH  100%=      5-min Rain = 0
KBO1 220909Z 19006KT 15/15 A3004 RMK A01 T01530153  RH  100%=      5-min Rain = 0
KBO1 220910Z 18006KT 15/15 A3004 RMK A01 T01530153  RH  100%=      5-min Rain = 0
KBO1 220911Z 18006KT 15/15 A3004 RMK A01 T01530153  RH  100%=      5-min Rain = 0
KBO1 220912Z 19006KT 15/15 A3005 RMK A01 T01530153  RH  100%=      5-min Rain = 0
KBO1 220913Z 19006KT 15/15 A3005 RMK A01 T01530153  RH  100%=      5-min Rain = 0
KBO1 220914Z 19006KT 15/15 A3005 RMK A01 T01530153  RH  100%=      5-min Rain = 0
KBO1 220915Z 20005KT 15/15 A3005 RMK A01 T01530153  RH  100%=      5-min Rain = 0
KBO1 220916Z 20005KT 15/15 A3005 RMK A01 T01530153  RH  100%=      5-min Rain = 0
KBO1 220917Z 19006KT 15/15 A3005 RMK A01 T01530153  RH  100%=      5-min Rain = 0
KBO1 220918Z 20006KT 15/15 A3004 RMK A01 T01530153  RH  100%=      5-min Rain = 0
KBO1 220919Z 20006KT 15/15 A3004 RMK A01 T01530153  RH  100%=      5-min Rain = 0
KBO1 220920Z 20006KT 15/15 A3004 RMK A01 T01530153  RH  100%=      5-min Rain = 0
KBO1 220921Z 20007KT 15/15 A3004 RMK A01 T01530153  RH  100%=      5-min Rain = 0
KBO1 220922Z 20007KT 15/15 A3004 RMK A01 T01530154  RH  100%=      5-min Rain = 0
KBO1 220923Z 20007KT 15/15 A3004 RMK A01 T01540154  RH  100%=      5-min Rain = 0
KBO1 220924Z 20007KT 15/15 A3004 RMK A01 T01540154  RH  100%=      5-min Rain = 0
KBO1 220925Z 19007KT 15/15 A3004 RMK A01 T01540154  RH  100%=      5-min Rain = 0
KBO1 220926Z 19007KT 16/16 A3005 RMK A01 T01550155  RH  100%=      5-min Rain = 0
KBO1 220927Z 19007KT 16/16 A3005 RMK A01 T01550155  RH  100%=      5-min Rain = 0
KBO1 220928Z 19007KT 16/16 A3005 RMK A01 T01550155  RH  100%=      5-min Rain = 0
KBO1 220929Z 19007KT 16/16 A3005 RMK A01 T01550155  RH  100%=      5-min Rain = 0
KBO1 220930Z 19006KT 16/16 A3005 RMK A01 T01550155  RH  100%=      5-min Rain = 0
KBO1 220931Z 18006KT 16/16 A3005 RMK A01 T01550155  RH  100%=      5-min Rain = 0
KBO1 220932Z 18006KT 16/16 A3005 RMK A01 T01550155  RH  100%=      5-min Rain = 0
KBO1 220933Z 18006KT 16/16 A3005 RMK A01 T01550155  RH  100%=      5-min Rain = 0
KBO1 220934Z 17006KT 16/16 A3005 RMK A01 T01550155  RH  100%=      5-min Rain = 0
KBO1 220935Z 17006KT 16/16 A3005 RMK A01 T01550155  RH  100%=      5-min Rain = 0
KBO1 220936Z 17006KT 15/15 A3005 RMK A01 T01540154  RH  100%=      5-min Rain = 0
KBO1 220937Z 17006KT 15/15 A3005 RMK A01 T01540154  RH  100%=      5-min Rain = 0
KBO1 220938Z 17005KT 15/15 A3005 RMK A01 T01540154  RH  100%=      5-min Rain = 0
KBO1 220939Z 18004KT 15/15 A3005 RMK A01 T01540154  RH  100%=      5-min Rain = 0
KBO1 220940Z 17004KT 15/15 A3005 RMK A01 T01530153  RH  100%=      5-min Rain = 0
KBO1 220941Z 16004KT 15/15 A3005 RMK A01 T01530153  RH  100%=      5-min Rain = 0
KBO1 220942Z 16004KT 15/15 A3005 RMK A01 T01530153  RH  100%=      5-min Rain = 0
KBO1 220943Z 16003KT 15/15 A3005 RMK A01 T01530153  RH  100%=      5-min Rain = 0
KBO1 220944Z 14002KT 15/15 A3005 RMK A01 T01520152  RH  100%=      5-min Rain = 0
KBO1 220945Z 14001KT 15/15 A3005 RMK A01 T01520153  RH  100%=      5-min Rain = 0
KBO1 220946Z 16000KT 15/15 A3005 RMK A01 T01520152  RH  100%=      5-min Rain = 0
KBO1 220947Z 04000KT 15/15 A3005 RMK A01 T01520152  RH  100%=      5-min Rain = 0
KBO1 220948Z 06001KT 15/15 A3005 RMK A01 T01520152  RH  100%=      5-min Rain = 0
KBO1 220949Z 05001KT 15/15 A3005 RMK A01 T01510152  RH  100%=      5-min Rain = 0
KBO1 220950Z 04001KT 15/15 A3005 RMK A01 T01510151  RH  100%=      5-min Rain = 0
KBO1 220951Z 05001KT 15/15 A3005 RMK A01 T01510151  RH  100%=      5-min Rain = 0
KBO1 220952Z 08001KT 15/15 A3005 RMK A01 T01510151  RH  100%=      5-min Rain = 0
KBO1 220953Z 11001KT 15/15 A3005 RMK A01 T01510151  RH  100%=      5-min Rain = 0
KBO1 220954Z 11001KT 15/15 A3005 RMK A01 T01510151  RH  100%=      5-min Rain = 0
KBO1 220955Z 09000KT 15/15 A3005 RMK A01 T01510151  RH  100%=      5-min Rain = 0
KBO1 220956Z 11001KT 15/15 A3005 RMK A01 T01510151  RH  100%=      5-min Rain = 0
KBO1 220957Z 14001KT 15/15 A3005 RMK A01 T01520152  RH  100%=      5-min Rain = 0
KBO1 220958Z 15001KT 15/15 A3005 RMK A01 T01520152  RH  100%=      5-min Rain = 0
KBO1 220959Z 15001KT 15/15 A3005 RMK A01 T01520153  RH  100%=      5-min Rain = 0
KBO1 221000Z 16003KT 15/15 A3005 RMK A01 T01520152  RH  100%=      5-min Rain = 0
KBO1 221001Z 16003KT 15/15 A3005 RMK A01 T01530153  RH  100%=      5-min Rain = 0
KBO1 221002Z 15002KT 15/15 A3005 RMK A01 T01530153  RH  100%=      5-min Rain = 0
KBO1 221003Z 18002KT 15/15 A3005 RMK A01 T01540154  RH  100%=      5-min Rain = 0
KBO1 221004Z 20004KT 15/15 A3005 RMK A01 T01540154  RH  100%=      5-min Rain = 0
KBO1 221005Z 19004KT 16/16 A3005 RMK A01 T01550155  RH  100%=      5-min Rain = 0
KBO1 221006Z 20005KT 16/16 A3005 RMK A01 T01560156  RH  100%=      5-min Rain = 0
KBO1 221007Z 21004KT 16/16 A3005 RMK A01 T01560156  RH  100%=      5-min Rain = 0
KBO1 221008Z 20006KT 16/16 A3005 RMK A01 T01570157  RH  100%=      5-min Rain = 0
KBO1 221009Z 21008KT 16/16 A3005 RMK A01 T01570157  RH  100%=      5-min Rain = 0
KBO1 221010Z 21009KT 16/16 A3005 RMK A01 T01590159  RH  100%=      5-min Rain = 0
KBO1 221011Z 22007KT 16/16 A3005 RMK A01 T01600160  RH  100%=      5-min Rain = 0
KBO1 221012Z 22009KT 16/16 A3005 RMK A01 T01610160  RH  099%=      5-min Rain = 0
KBO1 221013Z 22009KT 16/16 A3005 RMK A01 T01620159  RH  098%=      5-min Rain = 0
KBO1 221014Z 22009KT 16/16 A3005 RMK A01 T01630159  RH  097%=      5-min Rain = 0
KBO1 221015Z 22008KT 16/16 A3005 RMK A01 T01640159  RH  097%=      5-min Rain = 0
KBO1 221016Z 23008KT 16/16 A3005 RMK A01 T01640158  RH  096%=      5-min Rain = 0
KBO1 221017Z 23008KT 16/16 A3005 RMK A01 T01630158  RH  096%=      5-min Rain = 0
KBO1 221018Z 23007KT 16/16 A3005 RMK A01 T01630157  RH  096%=      5-min Rain = 0
KBO1 221019Z 23010KT 16/16 A3005 RMK A01 T01630157  RH  096%=      5-min Rain = 0
KBO1 221020Z 24013KT 16/16 A3005 RMK A01 T01630157  RH  096%=      5-min Rain = 0
KBO1 221021Z 23012KT 16/16 A3005 RMK A01 T01640157  RH  096%=      5-min Rain = 0
KBO1 221022Z 23011KT 16/16 A3005 RMK A01 T01640157  RH  096%=      5-min Rain = 0
KBO1 221023Z 22013KT 16/16 A3005 RMK A01 T01640157  RH  096%=      5-min Rain = 0
KBO1 221024Z 22013KT 16/16 A3005 RMK A01 T01640157  RH  096%=      5-min Rain = 0
KBO1 221025Z 22014KT 16/16 A3005 RMK A01 T01640157  RH  096%=      5-min Rain = 0
KBO1 221026Z 22013KT 16/16 A3005 RMK A01 T01640157  RH  096%=      5-min Rain = 0
KBO1 221027Z 21012KT 16/16 A3005 RMK A01 T01630157  RH  096%=      5-min Rain = 0
KBO1 221028Z 22013G18KT 16/16 A3004 RMK A01 T01630157  RH  096%=      5-min Rain = 0
KBO1 221029Z 22012KT 16/16 A3004 RMK A01 T01630157  RH  096%=      5-min Rain = 0
KBO1 221030Z 22012KT 16/16 A3004 RMK A01 T01630158  RH  097%=      5-min Rain = 0
KBO1 221031Z 22012KT 16/16 A3004 RMK A01 T01620158  RH  097%=      5-min Rain = 0
KBO1 221032Z 22013KT 16/16 A3004 RMK A01 T01620158  RH  098%=      5-min Rain = 0
KBO1 221033Z 22012KT 16/16 A3004 RMK A01 T01620158  RH  098%=      5-min Rain = 0
KBO1 221034Z 22013KT 16/16 A3004 RMK A01 T01620159  RH  098%=      5-min Rain = 0
KBO1 221035Z 22014KT 16/16 A3004 RMK A01 T01610159  RH  098%=      5-min Rain = 0
KBO1 221036Z 22015KT 16/16 A3004 RMK A01 T01620159  RH  099%=      5-min Rain = 0
KBO1 221037Z 21012KT 16/16 A3004 RMK A01 T01610159  RH  099%=      5-min Rain = 0
KBO1 221038Z 22014KT 16/16 A3004 RMK A01 T01610159  RH  099%=      5-min Rain = 0
KBO1 221039Z 21013KT 16/16 A3004 RMK A01 T01610159  RH  099%=      5-min Rain = 0
KBO1 221040Z 22014KT 16/16 A3004 RMK A01 T01610159  RH  099%=      5-min Rain = 0
KBO1 221041Z 22013KT 16/16 A3004 RMK A01 T01610159  RH  099%=      5-min Rain = 0
KBO1 221042Z 22013KT 16/16 A3005 RMK A01 T01610160  RH  099%=      5-min Rain = 0
KBO1 221043Z 22013KT 16/16 A3005 RMK A01 T01610160  RH  100%=      5-min Rain = 0
KBO1 221044Z 23015KT 16/16 A3005 RMK A01 T01610160  RH  100%=      5-min Rain = 0
KBO1 221045Z 22014KT 16/16 A3005 RMK A01 T01610160  RH  100%=      5-min Rain = 0
KBO1 221046Z 22014KT 16/16 A3005 RMK A01 T01610161  RH  100%=      5-min Rain = 0
KBO1 221047Z 22012KT 16/16 A3005 RMK A01 T01610160  RH  099%=      5-min Rain = 0
KBO1 221048Z 22013KT 16/16 A3005 RMK A01 T01610160  RH  099%=      5-min Rain = 0
KBO1 221049Z 22013KT 16/16 A3005 RMK A01 T01610160  RH  100%=      5-min Rain = 0
KBO1 221050Z 22013KT 16/16 A3005 RMK A01 T01610160  RH  100%=      5-min Rain = 0
KBO1 221051Z 23014KT 16/16 A3005 RMK A01 T01610161  RH  100%=      5-min Rain = 0
KBO1 221052Z 23014KT 16/16 A3005 RMK A01 T01610161  RH  100%=      5-min Rain = 0
KBO1 221053Z 22011KT 16/16 A3006 RMK A01 T01610161  RH  100%=      5-min Rain = 0
KBO1 221054Z 23011KT 16/16 A3006 RMK A01 T01610160  RH  100%=      5-min Rain = 0
KBO1 221055Z 22013KT 16/16 A3006 RMK A01 T01610161  RH  100%=      5-min Rain = 0
KBO1 221056Z 22014KT 16/16 A3006 RMK A01 T01610161  RH  100%=      5-min Rain = 0
KBO1 221057Z 22011KT 16/16 A3006 RMK A01 T01610161  RH  100%=      5-min Rain = 0
KBO1 221058Z 22012KT 16/16 A3006 RMK A01 T01610161  RH  100%=      5-min Rain = 0
KBO1 221059Z 23012KT 16/16 A3006 RMK A01 T01610161  RH  100%=      5-min Rain = 0
KBO1 221100Z 23012KT 16/16 A3006 RMK A01 T01610161  RH  100%=      5-min Rain = 0
KBO1 221101Z 23012KT 16/16 A3006 RMK A01 T01610161  RH  100%=      5-min Rain = 0
KBO1 221102Z 23014KT 16/16 A3006 RMK A01 T01610161  RH  100%=      5-min Rain = 0
KBO1 221103Z 23012KT 16/16 A3006 RMK A01 T01610161  RH  100%=      5-min Rain = 0
KBO1 221104Z 23012KT 16/16 A3006 RMK A01 T01610161  RH  100%=      5-min Rain = 0
KBO1 221105Z 23012KT 16/16 A3006 RMK A01 T01610161  RH  099%=      5-min Rain = 0
KBO1 221106Z 23012KT 16/16 A3006 RMK A01 T01620161  RH  099%=      5-min Rain = 0
KBO1 221107Z 23011KT 16/16 A3006 RMK A01 T01620160  RH  099%=      5-min Rain = 0
KBO1 221108Z 23011KT 16/16 A3006 RMK A01 T01610160  RH  099%=      5-min Rain = 0
KBO1 221109Z 23012KT 16/16 A3006 RMK A01 T01610160  RH  099%=      5-min Rain = 0
KBO1 221110Z 23012KT 16/16 A3006 RMK A01 T01620160  RH  099%=      5-min Rain = 0
KBO1 221111Z 22014KT 16/16 A3006 RMK A01 T01620160  RH  099%=      5-min Rain = 0
KBO1 221112Z 23014KT 16/16 A3006 RMK A01 T01610160  RH  099%=      5-min Rain = 0
KBO1 221113Z 23015KT 16/16 A3006 RMK A01 T01620160  RH  099%=      5-min Rain = 0
KBO1 221114Z 23013KT 16/16 A3006 RMK A01 T01620160  RH  099%=      5-min Rain = 0
KBO1 221115Z 22013KT 16/16 A3006 RMK A01 T01620159  RH  098%=      5-min Rain = 0
KBO1 221116Z 22013KT 16/16 A3006 RMK A01 T01620160  RH  099%=      5-min Rain = 0
KBO1 221117Z 23015KT 16/16 A3006 RMK A01 T01610160  RH  099%=      5-min Rain = 0
KBO1 221118Z 23014KT 16/16 A3006 RMK A01 T01610160  RH  099%=      5-min Rain = 0
KBO1 221119Z 23013KT 16/16 A3006 RMK A01 T01610160  RH  099%=      5-min Rain = 0
KBO1 221120Z 23013KT 16/16 A3006 RMK A01 T01620160  RH  099%=      5-min Rain = 0
KBO1 221121Z 23013KT 16/16 A3006 RMK A01 T01610160  RH  099%=      5-min Rain = 0
KBO1 221122Z 23012KT 16/16 A3006 RMK A01 T01610159  RH  099%=      5-min Rain = 0
KBO1 221123Z 23014KT 16/16 A3006 RMK A01 T01610159  RH  099%=      5-min Rain = 0
KBO1 221124Z 23014KT 16/16 A3006 RMK A01 T01610159  RH  099%=      5-min Rain = 0
KBO1 221125Z 23013KT 16/16 A3006 RMK A01 T01610159  RH  099%=      5-min Rain = 0
KBO1 221126Z 22012KT 16/16 A3006 RMK A01 T01610159  RH  099%=      5-min Rain = 0
KBO1 221127Z 22013KT 16/16 A3006 RMK A01 T01610159  RH  099%=      5-min Rain = 0
KBO1 221128Z 23013KT 16/16 A3006 RMK A01 T01610159  RH  099%=      5-min Rain = 0
KBO1 221129Z 23013KT 16/16 A3006 RMK A01 T01600159  RH  099%=      5-min Rain = 0
KBO1 221130Z 23013KT 16/16 A3007 RMK A01 T01600159  RH  099%=      5-min Rain = 0
KBO1 221131Z 23012KT 16/16 A3007 RMK A01 T01600159  RH  099%=      5-min Rain = 0
KBO1 221132Z 23011KT 16/16 A3007 RMK A01 T01610159  RH  099%=      5-min Rain = 0
KBO1 221133Z 23012KT 16/16 A3007 RMK A01 T01610159  RH  099%=      5-min Rain = 0
KBO1 221134Z 23012KT 16/16 A3007 RMK A01 T01600159  RH  099%=      5-min Rain = 0
KBO1 221135Z 23013KT 16/16 A3007 RMK A01 T01610159  RH  099%=      5-min Rain = 0
KBO1 221136Z 22012KT 16/16 A3007 RMK A01 T01610159  RH  099%=      5-min Rain = 0
KBO1 221137Z 23011KT 16/16 A3007 RMK A01 T01610159  RH  099%=      5-min Rain = 0
KBO1 221138Z 23011KT 16/16 A3007 RMK A01 T01610159  RH  099%=      5-min Rain = 0
KBO1 221139Z 23012KT 16/16 A3007 RMK A01 T01600159  RH  099%=      5-min Rain = 0
KBO1 221140Z 23010KT 16/16 A3007 RMK A01 T01610159  RH  099%=      5-min Rain = 0
KBO1 221141Z 23009KT 16/16 A3007 RMK A01 T01600159  RH  099%=      5-min Rain = 0
KBO1 221142Z 24009KT 16/16 A3007 RMK A01 T01600159  RH  099%=      5-min Rain = 0
KBO1 221143Z 23010KT 16/16 A3008 RMK A01 T01600159  RH  099%=      5-min Rain = 0
KBO1 221144Z 23012KT 16/16 A3007 RMK A01 T01600159  RH  100%=      5-min Rain = 0
KBO1 221145Z 23011KT 16/16 A3007 RMK A01 T01600159  RH  100%=      5-min Rain = 0
KBO1 221146Z 23010KT 16/16 A3007 RMK A01 T01600159  RH  100%=      5-min Rain = 0
KBO1 221147Z 22012KT 16/16 A3007 RMK A01 T01600159  RH  099%=      5-min Rain = 0
KBO1 221148Z 22013KT 16/16 A3007 RMK A01 T01590158  RH  099%=      5-min Rain = 0
KBO1 221149Z 23013KT 16/16 A3007 RMK A01 T01590158  RH  099%=      5-min Rain = 0
KBO1 221150Z 23012KT 16/16 A3008 RMK A01 T01590157  RH  099%=      5-min Rain = 0
KBO1 221151Z 23012KT 16/16 A3007 RMK A01 T01590157  RH  099%=      5-min Rain = 0
KBO1 221152Z 23011KT 16/16 A3007 RMK A01 T01590157  RH  099%=      5-min Rain = 0
KBO1 221153Z 23010KT 16/16 A3007 RMK A01 T01580156  RH  099%=      5-min Rain = 0
KBO1 221154Z 23010KT 16/16 A3007 RMK A01 T01580156  RH  099%=      5-min Rain = 0
KBO1 221155Z 23011KT 16/16 A3007 RMK A01 T01580156  RH  099%=      5-min Rain = 0
KBO1 221156Z 23010KT 16/16 A3007 RMK A01 T01580157  RH  099%=      5-min Rain = 0
KBO1 221157Z 23010KT 16/16 A3008 RMK A01 T01570156  RH  099%=      5-min Rain = 0
KBO1 221158Z 23010KT 16/16 A3007 RMK A01 T01570156  RH  099%=      5-min Rain = 0
KBO1 221159Z 22009KT 16/16 A3008 RMK A01 T01570156  RH  100%=      5-min Rain = 0
KBO1 221200Z 22008KT 16/16 A3008 RMK A01 T01570156  RH  100%=      5-min Rain = 0
KBO1 221201Z 22009KT 16/16 A3008 RMK A01 T01560156  RH  100%=      5-min Rain = 0
KBO1 221202Z 23012KT 16/16 A3008 RMK A01 T01560156  RH  100%=      5-min Rain = 0
KBO1 221203Z 22010KT 16/16 A3007 RMK A01 T01560156  RH  100%=      5-min Rain = 0
KBO1 221204Z 23010KT 16/16 A3008 RMK A01 T01560156  RH  100%=      5-min Rain = 0
KBO1 221205Z 22010KT 16/16 A3008 RMK A01 T01560156  RH  100%=      5-min Rain = 0
KBO1 221206Z 23010KT 16/16 A3008 RMK A01 T01560156  RH  100%=      5-min Rain = 0
KBO1 221207Z 23010KT 16/16 A3008 RMK A01 T01560155  RH  100%=      5-min Rain = 0
KBO1 221208Z 23010KT 16/16 A3008 RMK A01 T01550155  RH  099%=      5-min Rain = 0
KBO1 221209Z 23010KT 16/15 A3008 RMK A01 T01550154  RH  099%=      5-min Rain = 0
KBO1 221210Z 23012KT 16/15 A3008 RMK A01 T01560154  RH  099%=      5-min Rain = 0
KBO1 221211Z 23011KT 16/15 A3008 RMK A01 T01560154  RH  099%=      5-min Rain = 0
KBO1 221212Z 23010KT 16/15 A3008 RMK A01 T01560154  RH  099%=      5-min Rain = 0
KBO1 221213Z 23010KT 16/15 A3008 RMK A01 T01550153  RH  099%=      5-min Rain = 0
KBO1 221214Z 23009KT 16/15 A3008 RMK A01 T01550153  RH  099%=      5-min Rain = 0
KBO1 221215Z 23010KT 16/15 A3008 RMK A01 T01550153  RH  099%=      5-min Rain = 0
KBO1 221216Z 23010KT 16/15 A3008 RMK A01 T01550153  RH  099%=      5-min Rain = 0
KBO1 221217Z 23011KT 15/15 A3008 RMK A01 T01540153  RH  099%=      5-min Rain = 0
KBO1 221218Z 23009KT 15/15 A3008 RMK A01 T01540153  RH  099%=      5-min Rain = 0
KBO1 221219Z 23010KT 15/15 A3008 RMK A01 T01530152  RH  099%=      5-min Rain = 0
KBO1 221220Z 23010KT 15/15 A3008 RMK A01 T01530153  RH  100%=      5-min Rain = 0
KBO1 221221Z 23011KT 15/15 A3008 RMK A01 T01530153  RH  100%=      5-min Rain = 0
KBO1 221222Z 23011KT 15/15 A3008 RMK A01 T01530153  RH  100%=      5-min Rain = 0
KBO1 221223Z 23010KT 15/15 A3008 RMK A01 T01530153  RH  100%=      5-min Rain = 0
KBO1 221224Z 23010KT 15/15 A3008 RMK A01 T01530153  RH  100%=      5-min Rain = 0
KBO1 221225Z 23010KT 15/15 A3008 RMK A01 T01530153  RH  100%=      5-min Rain = 0
KBO1 221226Z 24011KT 15/15 A3009 RMK A01 T01520152  RH  100%=      5-min Rain = 0
KBO1 221227Z 24011KT 15/15 A3009 RMK A01 T01520153  RH  100%=      5-min Rain = 0
KBO1 221228Z 25009KT 15/15 A3009 RMK A01 T01530153  RH  100%=      5-min Rain = 0
KBO1 221229Z 26009KT 15/15 A301 RMK A01 T01520152  RH  100%=      5-min Rain = 0
KBO1 221230Z 26009KT 15/15 A301 RMK A01 T01520153  RH  100%=      5-min Rain = 0
KBO1 221231Z 26009KT 15/15 A301 RMK A01 T01530153  RH  100%=      5-min Rain = 0
KBO1 221232Z 25009KT 15/15 A301 RMK A01 T01520152  RH  100%=      5-min Rain = 0
KBO1 221233Z 26010KT 15/15 A301 RMK A01 T01520152  RH  100%=      5-min Rain = 0
KBO1 221234Z 26010KT 15/15 A301 RMK A01 T01510152  RH  100%=      5-min Rain = 0
KBO1 221235Z 26010KT 15/15 A301 RMK A01 T01520152  RH  100%=      5-min Rain = 0
KBO1 221236Z 26011KT 15/15 A301 RMK A01 T01510152  RH  100%=      5-min Rain = 0
KBO1 221237Z 26012KT 15/15 A301 RMK A01 T01510151  RH  100%=      5-min Rain = 0
KBO1 221238Z 25012KT 15/15 A301 RMK A01 T01510152  RH  100%=      5-min Rain = 0
KBO1 221239Z 25012KT 15/15 A301 RMK A01 T01520152  RH  100%=      5-min Rain = 0
KBO1 221240Z 25012KT 15/15 A301 RMK A01 T01510151  RH  100%=      5-min Rain = 0
KBO1 221241Z 25013KT 15/15 A301 RMK A01 T01520152  RH  100%=      5-min Rain = 0
KBO1 221242Z 26012KT 15/15 A301 RMK A01 T01520152  RH  100%=      5-min Rain = 0
KBO1 221243Z 26010KT 15/15 A3011 RMK A01 T01520152  RH  100%=      5-min Rain = 0
KBO1 221244Z 26010KT 15/15 A3011 RMK A01 T01520152  RH  100%=      5-min Rain = 0
KBO1 221245Z 27009KT 15/15 A3011 RMK A01 T01510151  RH  100%=      5-min Rain = 0
KBO1 221246Z 26010KT 15/15 A3011 RMK A01 T01510151  RH  100%=      5-min Rain = 0
KBO1 221247Z 26012KT 15/15 A301 RMK A01 T01500151  RH  100%=      5-min Rain = 0
KBO1 221248Z 25012KT 15/15 A301 RMK A01 T01500151  RH  100%=      5-min Rain = 0
KBO1 221249Z 26011KT 15/15 A301 RMK A01 T01500151  RH  100%=      5-min Rain = 0
KBO1 221250Z 26010KT 15/15 A301 RMK A01 T01500150  RH  100%=      5-min Rain = 0
KBO1 221251Z 27009KT 15/15 A3011 RMK A01 T01500150  RH  100%=      5-min Rain = 0
KBO1 221252Z 28009KT 15/15 A3011 RMK A01 T01510151  RH  100%=      5-min Rain = 0
KBO1 221253Z 28010KT 15/15 A3011 RMK A01 T01500150  RH  100%=      5-min Rain = 0
KBO1 221254Z 28009KT 15/15 A3011 RMK A01 T01490150  RH  100%=      5-min Rain = 0
KBO1 221255Z 27010KT 15/15 A3011 RMK A01 T01500150  RH  100%=      5-min Rain = 0
KBO1 221256Z 27009KT 15/15 A3011 RMK A01 T01500150  RH  100%=      5-min Rain = 0
KBO1 221257Z 27009KT 15/15 A3011 RMK A01 T01490150  RH  100%=      5-min Rain = 0
KBO1 221258Z 27009KT 15/15 A3011 RMK A01 T01500150  RH  100%=      5-min Rain = 0
KBO1 221259Z 28009KT 15/15 A3011 RMK A01 T01500150  RH  100%=      5-min Rain = 0
KBO1 221300Z 29009KT 15/15 A3012 RMK A01 T01490150  RH  100%=      5-min Rain = 0
KBO1 221301Z 31009KT 15/15 A3012 RMK A01 T01500150  RH  100%=      5-min Rain = 0
KBO1 221302Z 31009KT 15/15 A3012 RMK A01 T01490150  RH  100%=      5-min Rain = 0
KBO1 221303Z 32009KT 15/15 A3012 RMK A01 T01500150  RH  100%=      5-min Rain = 0
KBO1 221304Z 30009KT 15/15 A3012 RMK A01 T01500150  RH  100%=      5-min Rain = 0
KBO1 221305Z 29007KT 15/15 A3011 RMK A01 T01500150  RH  100%=      5-min Rain = 0
KBO1 221306Z 29007KT 15/15 A3011 RMK A01 T01500150  RH  100%=      5-min Rain = 0
KBO1 221307Z 29007KT 15/15 A3011 RMK A01 T01500150  RH  100%=      5-min Rain = 0
KBO1 221308Z 30007KT 15/15 A3011 RMK A01 T01500150  RH  100%=      5-min Rain = 0
KBO1 221309Z 30008KT 15/15 A3012 RMK A01 T01510151  RH  100%=      5-min Rain = 0
KBO1 221310Z 29007KT 15/15 A3012 RMK A01 T01510151  RH  100%=      5-min Rain = 0
KBO1 221311Z 30007KT 15/15 A3012 RMK A01 T01510151  RH  100%=      5-min Rain = 0
KBO1 221312Z 29007KT 15/15 A3011 RMK A01 T01510152  RH  100%=      5-min Rain = 0
KBO1 221313Z 29006KT 15/15 A3011 RMK A01 T01520152  RH  100%=      5-min Rain = 0
KBO1 221314Z 29006KT 15/15 A3012 RMK A01 T01520152  RH  100%=      5-min Rain = 0
KBO1 221315Z 29006KT 15/15 A3012 RMK A01 T01530153  RH  100%=      5-min Rain = 0
KBO1 221316Z 29007KT 15/15 A3011 RMK A01 T01530153  RH  100%=      5-min Rain = 0
KBO1 221317Z 29007KT 15/15 A3011 RMK A01 T01530153  RH  100%=      5-min Rain = 0
KBO1 221318Z 29007KT 15/15 A3012 RMK A01 T01540154  RH  100%=      5-min Rain = 0
KBO1 221319Z 29007KT 15/15 A3012 RMK A01 T01540154  RH  100%=      5-min Rain = 0
KBO1 221320Z 29007KT 15/15 A3012 RMK A01 T01540154  RH  100%=      5-min Rain = 0
KBO1 221321Z 30007KT 16/16 A3012 RMK A01 T01550155  RH  100%=      5-min Rain = 0
KBO1 221322Z 30007KT 16/16 A3012 RMK A01 T01550155  RH  100%=      5-min Rain = 0
KBO1 221323Z 30007KT 16/16 A3012 RMK A01 T01550155  RH  100%=      5-min Rain = 0
KBO1 221324Z 31007KT 16/16 A3012 RMK A01 T01560156  RH  100%=      5-min Rain = 0
KBO1 221325Z 31007KT 16/16 A3012 RMK A01 T01560156  RH  100%=      5-min Rain = 0
KBO1 221326Z 31008KT 16/16 A3012 RMK A01 T01560156  RH  100%=      5-min Rain = 0
KBO1 221327Z 31008KT 16/16 A3012 RMK A01 T01550155  RH  100%=      5-min Rain = 0
KBO1 221328Z 32008KT 16/16 A3012 RMK A01 T01550155  RH  100%=      5-min Rain = 0
KBO1 221329Z 31006KT 16/16 A3012 RMK A01 T01550155  RH  100%=      5-min Rain = 0
KBO1 221330Z 31006KT 16/16 A3012 RMK A01 T01550155  RH  100%=      5-min Rain = 0
KBO1 221331Z 30005KT 16/16 A3012 RMK A01 T01550155  RH  100%=      5-min Rain = 0
KBO1 221332Z 30006KT 16/16 A3012 RMK A01 T01550155  RH  100%=      5-min Rain = 0
KBO1 221333Z 31006KT 16/16 A3012 RMK A01 T01560156  RH  100%=      5-min Rain = 0
KBO1 221334Z 32006KT 16/16 A3012 RMK A01 T01560156  RH  100%=      5-min Rain = 0
KBO1 221335Z 32006KT 16/16 A3012 RMK A01 T01560156  RH  100%=      5-min Rain = 0
KBO1 221336Z 32007KT 16/16 A3012 RMK A01 T01560156  RH  100%=      5-min Rain = 0
KBO1 221337Z 33006KT 16/16 A3012 RMK A01 T01570157  RH  100%=      5-min Rain = 0
KBO1 221338Z 32007KT 16/16 A3012 RMK A01 T01570157  RH  100%=      5-min Rain = 0
KBO1 221339Z 32006KT 16/16 A3012 RMK A01 T01560157  RH  100%=      5-min Rain = 0
KBO1 221340Z 33006KT 16/16 A3012 RMK A01 T01560156  RH  100%=      5-min Rain = 0
KBO1 221341Z 33008KT 16/16 A3012 RMK A01 T01560156  RH  100%=      5-min Rain = 0
KBO1 221342Z 33009KT 16/16 A3013 RMK A01 T01560156  RH  100%=      5-min Rain = 0
KBO1 221343Z 33009KT 16/16 A3013 RMK A01 T01560156  RH  100%=      5-min Rain = 0
KBO1 221344Z 34010KT 16/16 A3013 RMK A01 T01550156  RH  100%=      5-min Rain = 0
KBO1 221345Z 34010KT 16/16 A3013 RMK A01 T01550155  RH  100%=      5-min Rain = 0
KBO1 221346Z 34010KT 16/16 A3013 RMK A01 T01550155  RH  100%=      5-min Rain = 0
KBO1 221347Z 35012KT 16/16 A3013 RMK A01 T01550155  RH  100%=      5-min Rain = 0
KBO1 221348Z 35011KT 15/15 A3013 RMK A01 T01540154  RH  100%=      5-min Rain = 0
KBO1 221349Z 35011KT 15/15 A3013 RMK A01 T01530145  RH  095%=      5-min Rain = 0
KBO1 221350Z 35011KT 15/14 A3013 RMK A01 T01520135  RH  090%=      5-min Rain = 0
KBO1 221351Z 35010KT 15/13 A3013 RMK A01 T01520131  RH  088%=      5-min Rain = 0
KBO1 221352Z 35010KT 15/13 A3013 RMK A01 T01510130  RH  087%=      5-min Rain = 0
KBO1 221353Z 35010KT 15/13 A3013 RMK A01 T01510130  RH  087%=      5-min Rain = 0
KBO1 221354Z 36008KT 15/13 A3013 RMK A01 T01510131  RH  088%=      5-min Rain = 0
KBO1 221355Z 35009KT 15/13 A3014 RMK A01 T01510133  RH  089%=      5-min Rain = 0
KBO1 221356Z 36009KT 15/13 A3014 RMK A01 T01500131  RH  088%=      5-min Rain = 0
KBO1 221357Z 35009KT 15/13 A3014 RMK A01 T01510131  RH  088%=      5-min Rain = 0
KBO1 221358Z 36011KT 15/13 A3014 RMK A01 T01510130  RH  088%=      5-min Rain = 0
KBO1 221359Z 36012KT 15/12 A3014 RMK A01 T01500124  RH  084%=      5-min Rain = 0
KBO1 221400Z 00012KT 15/12 A3014 RMK A01 T01500122  RH  083%=      5-min Rain = 0
KBO1 221401Z 01010KT 15/12 A3014 RMK A01 T01500122  RH  083%=      5-min Rain = 0
KBO1 221402Z 01008KT 15/12 A3014 RMK A01 T01490124  RH  085%=      5-min Rain = 0
KBO1 221403Z 00008KT 15/13 A3014 RMK A01 T01500127  RH  086%=      5-min Rain = 0
KBO1 221404Z 01006KT 15/13 A3014 RMK A01 T01500128  RH  087%=      5-min Rain = 0
KBO1 221405Z 00009KT 15/13 A3014 RMK A01 T01490128  RH  087%=      5-min Rain = 0
KBO1 221406Z 01007KT 15/13 A3015 RMK A01 T01500126  RH  086%=      5-min Rain = 0
KBO1 221407Z 01008KT 15/13 A3015 RMK A01 T01500126  RH  086%=      5-min Rain = 0
KBO1 221408Z 01009KT 15/12 A3015 RMK A01 T01490121  RH  083%=      5-min Rain = 0
KBO1 221409Z 01009KT 15/12 A3015 RMK A01 T01490119  RH  082%=      5-min Rain = 0
KBO1 221410Z 01011KT 15/11 A3015 RMK A01 T01490113  RH  079%=      5-min Rain = 0
KBO1 221411Z 01010KT 15/11 A3015 RMK A01 T01490108  RH  076%=      5-min Rain = 0
KBO1 221412Z 00009KT 15/11 A3015 RMK A01 T01480108  RH  076%=      5-min Rain = 0
KBO1 221413Z 36008KT 15/11 A3015 RMK A01 T01480106  RH  076%=      5-min Rain = 0
KBO1 221414Z 01007KT 15/11 A3015 RMK A01 T01470106  RH  076%=      5-min Rain = 0
KBO1 221415Z 36008KT 15/11 A3015 RMK A01 T01470108  RH  077%=      5-min Rain = 0
KBO1 221416Z 35007KT 15/11 A3015 RMK A01 T01470105  RH  076%=      5-min Rain = 0
KBO1 221417Z 35008KT 15/10 A3015 RMK A01 T01470103  RH  075%=      5-min Rain = 0
KBO1 221418Z 36009KT 15/10 A3015 RMK A01 T01470100  RH  073%=      5-min Rain = 0
KBO1 221419Z 36011KT 15/10 A3015 RMK A01 T01470095  RH  071%=      5-min Rain = 0
KBO1 221420Z 36010KT 15/09 A3015 RMK A01 T01470092  RH  070%=      5-min Rain = 0
KBO1 221421Z 00013KT 15/09 A3015 RMK A01 T01470092  RH  070%=      5-min Rain = 0
KBO1 221422Z 00013KT 15/09 A3015 RMK A01 T01470087  RH  067%=      5-min Rain = 0
KBO1 221423Z 00012KT 15/09 A3015 RMK A01 T01460087  RH  067%=      5-min Rain = 0
KBO1 221424Z 36011KT 15/09 A3015 RMK A01 T01460087  RH  067%=      5-min Rain = 0
KBO1 221425Z 00010KT 15/09 A3015 RMK A01 T01470090  RH  069%=      5-min Rain = 0
KBO1 221426Z 00014KT 15/09 A3015 RMK A01 T01480091  RH  068%=      5-min Rain = 0
KBO1 221427Z 00011KT 15/09 A3015 RMK A01 T01490086  RH  066%=      5-min Rain = 0
KBO1 221428Z 36010KT 15/09 A3015 RMK A01 T01490092  RH  068%=      5-min Rain = 0
KBO1 221429Z 35012KT 15/09 A3015 RMK A01 T01500090  RH  067%=      5-min Rain = 0
KBO1 221430Z 00013KT 15/09 A3015 RMK A01 T01500090  RH  067%=      5-min Rain = 0
KBO1 221431Z 00015KT 15/09 A3015 RMK A01 T01500085  RH  065%=      5-min Rain = 0
KBO1 221432Z 00013KT 15/09 A3015 RMK A01 T01500085  RH  065%=      5-min Rain = 0
KBO1 221433Z 36012KT 15/09 A3015 RMK A01 T01500088  RH  067%=      5-min Rain = 0
KBO1 221434Z 00014KT 15/08 A3015 RMK A01 T01500084  RH  065%=      5-min Rain = 0
KBO1 221435Z 01013KT 15/08 A3015 RMK A01 T01490082  RH  064%=      5-min Rain = 0
KBO1 221436Z 01013KT 15/08 A3015 RMK A01 T01490082  RH  064%=      5-min Rain = 0
KBO1 221437Z 01013KT 15/08 A3015 RMK A01 T01490084  RH  065%=      5-min Rain = 0
KBO1 221438Z 00011KT 15/08 A3016 RMK A01 T01500084  RH  065%=      5-min Rain = 0
KBO1 221439Z 00013KT 15/09 A3016 RMK A01 T01510085  RH  065%=      5-min Rain = 0
KBO1 221440Z 00015KT 15/08 A3016 RMK A01 T01510083  RH  064%=      5-min Rain = 0
KBO1 221441Z 00015KT 15/08 A3016 RMK A01 T01500079  RH  062%=      5-min Rain = 0
KBO1 221442Z 01013KT 15/08 A3016 RMK A01 T01500082  RH  064%=      5-min Rain = 0
KBO1 221443Z 00014KT 15/08 A3016 RMK A01 T01500080  RH  063%=      5-min Rain = 0
KBO1 221444Z 00016KT 15/08 A3016 RMK A01 T01490080  RH  063%=      5-min Rain = 0
KBO1 221445Z 01017KT 15/08 A3016 RMK A01 T01490079  RH  063%=      5-min Rain = 0
KBO1 221446Z 01016KT 15/08 A3016 RMK A01 T01490079  RH  063%=      5-min Rain = 0
KBO1 221447Z 00014KT 15/08 A3016 RMK A01 T01510082  RH  063%=      5-min Rain = 0
KBO1 221448Z 00014KT 15/08 A3016 RMK A01 T01530083  RH  063%=      5-min Rain = 0
KBO1 221449Z 00016KT 15/08 A3016 RMK A01 T01540082  RH  062%=      5-min Rain = 0
KBO1 221450Z 36017KT 16/08 A3016 RMK A01 T01550080  RH  061%=      5-min Rain = 0
KBO1 221451Z 01017KT 16/08 A3016 RMK A01 T01550081  RH  061%=      5-min Rain = 0
KBO1 221452Z 01015KT 16/08 A3016 RMK A01 T01560080  RH  061%=      5-min Rain = 0
KBO1 221453Z 00012KT 16/09 A3016 RMK A01 T01570086  RH  062%=      5-min Rain = 0
KBO1 221454Z 01013G18KT 16/09 A3016 RMK A01 T01610089  RH  062%=      5-min Rain = 0
KBO1 221455Z 01015KT 16/09 A3016 RMK A01 T01630085  RH  060%=      5-min Rain = 0
KBO1 221456Z 01015KT 16/08 A3016 RMK A01 T01620082  RH  059%=      5-min Rain = 0
KBO1 221457Z 01012KT 16/08 A3016 RMK A01 T01610083  RH  060%=      5-min Rain = 0
KBO1 221458Z 01011KT 16/09 A3016 RMK A01 T01610085  RH  061%=      5-min Rain = 0
KBO1 221459Z 00013KT 16/09 A3016 RMK A01 T01630086  RH  060%=      5-min Rain = 0
KBO1 221500Z 00015KT 16/08 A3016 RMK A01 T01630081  RH  058%=      5-min Rain = 0
KBO1 221501Z 00014KT 16/08 A3016 RMK A01 T01620082  RH  059%=      5-min Rain = 0
KBO1 221502Z 00014KT 16/08 A3016 RMK A01 T01610080  RH  058%=      5-min Rain = 0
KBO1 221503Z 36013KT 16/08 A3016 RMK A01 T01620082  RH  059%=      5-min Rain = 0
KBO1 221504Z 36017KT 16/08 A3016 RMK A01 T01620079  RH  058%=      5-min Rain = 0
KBO1 221505Z 36016KT 16/08 A3016 RMK A01 T01610077  RH  058%=      5-min Rain = 0
KBO1 221506Z 35013KT 16/08 A3016 RMK A01 T01610077  RH  058%=      5-min Rain = 0
KBO1 221507Z 00015KT 16/08 A3016 RMK A01 T01610078  RH  058%=      5-min Rain = 0
KBO1 221508Z 36013KT 16/08 A3016 RMK A01 T01620078  RH  058%=      5-min Rain = 0
KBO1 221509Z 36014KT 16/08 A3016 RMK A01 T01610078  RH  058%=      5-min Rain = 0
KBO1 221510Z 36014KT 16/08 A3016 RMK A01 T01620079  RH  058%=      5-min Rain = 0
KBO1 221511Z 01014G19KT 16/08 A3017 RMK A01 T01630080  RH  058%=      5-min Rain = 0
KBO1 221512Z 00015KT 16/08 A3017 RMK A01 T01630080  RH  058%=      5-min Rain = 0
KBO1 221513Z 00014KT 16/08 A3017 RMK A01 T01630078  RH  057%=      5-min Rain = 0
KBO1 221514Z 01011KT 16/08 A3017 RMK A01 T01630081  RH  058%=      5-min Rain = 0
KBO1 221515Z 01013KT 17/08 A3016 RMK A01 T01650082  RH  058%=      5-min Rain = 0
KBO1 221516Z 02013KT 17/08 A3016 RMK A01 T01660079  RH  056%=      5-min Rain = 0
KBO1 221517Z 01013KT 16/08 A3017 RMK A01 T01640078  RH  057%=      5-min Rain = 0
KBO1 221518Z 01012KT 16/08 A3017 RMK A01 T01640080  RH  058%=      5-min Rain = 0
KBO1 221519Z 02014KT 17/08 A3017 RMK A01 T01650081  RH  058%=      5-min Rain = 0
KBO1 221520Z 01015KT 17/08 A3017 RMK A01 T01650079  RH  057%=      5-min Rain = 0
KBO1 221521Z 00015KT 16/08 A3017 RMK A01 T01640077  RH  057%=      5-min Rain = 0
KBO1 221522Z 36014KT 16/08 A3017 RMK A01 T01630077  RH  057%=      5-min Rain = 0
KBO1 221523Z 00014KT 16/08 A3017 RMK A01 T01620077  RH  057%=      5-min Rain = 0
KBO1 221524Z 01014KT 16/08 A3017 RMK A01 T01620077  RH  057%=      5-min Rain = 0
KBO1 221525Z 00014KT 16/08 A3017 RMK A01 T01640079  RH  057%=      5-min Rain = 0
KBO1 221526Z 01014KT 17/08 A3017 RMK A01 T01650078  RH  056%=      5-min Rain = 0
KBO1 221527Z 00012KT 17/08 A3017 RMK A01 T01650080  RH  057%=      5-min Rain = 0
KBO1 221528Z 35015KT 17/08 A3017 RMK A01 T01670079  RH  056%=      5-min Rain = 0
KBO1 221529Z 36016KT 17/08 A3017 RMK A01 T01660078  RH  056%=      5-min Rain = 0
KBO1 221530Z 01014KT 17/08 A3017 RMK A01 T01650078  RH  057%=      5-min Rain = 0
KBO1 221531Z 01014KT 17/08 A3017 RMK A01 T01650078  RH  056%=      5-min Rain = 0
KBO1 221532Z 36012KT 16/08 A3017 RMK A01 T01640078  RH  057%=      5-min Rain = 0
KBO1 221533Z 00013KT 17/08 A3017 RMK A01 T01650078  RH  057%=      5-min Rain = 0
KBO1 221534Z 01012KT 17/08 A3017 RMK A01 T01660076  RH  055%=      5-min Rain = 0
KBO1 221535Z 00014KT 17/08 A3017 RMK A01 T01660078  RH  056%=      5-min Rain = 0
KBO1 221536Z 01014KT 17/08 A3017 RMK A01 T01660078  RH  056%=      5-min Rain = 0
KBO1 221537Z 00014KT 17/08 A3017 RMK A01 T01670080  RH  056%=      5-min Rain = 0
KBO1 221538Z 01014KT 17/08 A3017 RMK A01 T01680080  RH  056%=      5-min Rain = 0
KBO1 221539Z 00015KT 17/08 A3017 RMK A01 T01690079  RH  055%=      5-min Rain = 0
KBO1 221540Z 36012KT 17/08 A3017 RMK A01 T01680080  RH  056%=      5-min Rain = 0
KBO1 221541Z 01013KT 17/08 A3017 RMK A01 T01690080  RH  056%=      5-min Rain = 0
KBO1 221542Z 00012KT 17/08 A3017 RMK A01 T01690079  RH  055%=      5-min Rain = 0
KBO1 221543Z 01011KT 17/08 A3017 RMK A01 T01700080  RH  055%=      5-min Rain = 0
KBO1 221544Z 02012KT 17/08 A3017 RMK A01 T01700080  RH  055%=      5-min Rain = 0
KBO1 221545Z 02012G17KT 17/08 A3017 RMK A01 T01700081  RH  056%=      5-min Rain = 0
KBO1 221546Z 01013KT 17/08 A3018 RMK A01 T01710081  RH  055%=      5-min Rain = 0
KBO1 221547Z 01010KT 17/08 A3018 RMK A01 T01720082  RH  055%=      5-min Rain = 0
KBO1 221548Z 00010KT 17/08 A3018 RMK A01 T01720082  RH  055%=      5-min Rain = 0
KBO1 221549Z 01009KT 17/08 A3018 RMK A01 T01730083  RH  055%=      5-min Rain = 0
KBO1 221550Z 00011KT 17/08 A3018 RMK A01 T01730081  RH  054%=      5-min Rain = 0
KBO1 221551Z 01011KT 17/08 A3018 RMK A01 T01720081  RH  055%=      5-min Rain = 0
KBO1 221552Z 02011KT 17/08 A3018 RMK A01 T01720083  RH  056%=      5-min Rain = 0
KBO1 221553Z 00011KT 17/09 A3018 RMK A01 T01740085  RH  056%=      5-min Rain = 0
KBO1 221554Z 35012KT 18/08 A3018 RMK A01 T01760084  RH  055%=      5-min Rain = 0
KBO1 221555Z 35011KT 18/08 A3018 RMK A01 T01760081  RH  054%=      5-min Rain = 0
KBO1 221556Z 35010KT 18/08 A3018 RMK A01 T01750078  RH  053%=      5-min Rain = 0
KBO1 221557Z 00009KT 17/08 A3018 RMK A01 T01720081  RH  055%=      5-min Rain = 0
KBO1 221558Z 35010KT 17/08 A3018 RMK A01 T01730082  RH  055%=      5-min Rain = 0
KBO1 221559Z 36010KT 18/09 A3018 RMK A01 T01770088  RH  056%=      5-min Rain = 0
KBO1 221600Z 34011KT 18/08 A3018 RMK A01 T01810084  RH  053%=      5-min Rain = 0
KBO1 221601Z 01011KT 18/08 A3018 RMK A01 T01800084  RH  053%=      5-min Rain = 0
KBO1 221602Z 01011KT 18/08 A3018 RMK A01 T01800084  RH  053%=      5-min Rain = 0
KBO1 221603Z 00010KT 18/08 A3018 RMK A01 T01790082  RH  053%=      5-min Rain = 0
KBO1 221604Z 36008KT 18/08 A3018 RMK A01 T01780083  RH  054%=      5-min Rain = 0
KBO1 221605Z 01012KT 18/08 A3018 RMK A01 T01790084  RH  054%=      5-min Rain = 0
KBO1 221606Z 01013KT 18/08 A3018 RMK A01 T01770080  RH  053%=      5-min Rain = 0
KBO1 221607Z 01011KT 18/08 A3018 RMK A01 T01760082  RH  054%=      5-min Rain = 0
KBO1 221608Z 01011KT 18/08 A3018 RMK A01 T01770081  RH  053%=      5-min Rain = 0
KBO1 221609Z 02009KT 18/08 A3018 RMK A01 T01760078  RH  053%=      5-min Rain = 0
KBO1 221610Z 03011KT 17/08 A3018 RMK A01 T01730079  RH  054%=      5-min Rain = 0
KBO1 221611Z 02011KT 17/08 A3018 RMK A01 T01730081  RH  055%=      5-min Rain = 0
KBO1 221612Z 02011KT 17/08 A3018 RMK A01 T01740081  RH  054%=      5-min Rain = 0
KBO1 221613Z 03010KT 18/08 A3018 RMK A01 T01750084  RH  055%=      5-min Rain = 0
KBO1 221614Z 01011KT 18/08 A3018 RMK A01 T01770083  RH  054%=      5-min Rain = 0
KBO1 221615Z 36010KT 18/08 A3018 RMK A01 T01780081  RH  053%=      5-min Rain = 0
KBO1 221616Z 01008KT 18/09 A3018 RMK A01 T01790085  RH  054%=      5-min Rain = 0
KBO1 221617Z 03011KT 18/09 A3018 RMK A01 T01810085  RH  053%=      5-min Rain = 0
KBO1 221618Z 02011KT 18/08 A3018 RMK A01 T01810084  RH  053%=      5-min Rain = 0
KBO1 221619Z 01010KT 18/08 A3018 RMK A01 T01810083  RH  053%=      5-min Rain = 0
KBO1 221620Z 01011KT 18/08 A3018 RMK A01 T01810083  RH  053%=      5-min Rain = 0
KBO1 221621Z 02013KT 18/08 A3018 RMK A01 T01810082  RH  053%=      5-min Rain = 0
KBO1 221622Z 03010KT 18/08 A3018 RMK A01 T01800083  RH  053%=      5-min Rain = 0
KBO1 221623Z 02010KT 18/08 A3018 RMK A01 T01800084  RH  053%=      5-min Rain = 0
KBO1 221624Z 01009KT 18/08 A3018 RMK A01 T01800082  RH  053%=      5-min Rain = 0
KBO1 221625Z 01006KT 18/08 A3018 RMK A01 T01790083  RH  053%=      5-min Rain = 0
KBO1 221626Z 01006KT 18/08 A3018 RMK A01 T01790081  RH  053%=      5-min Rain = 0
KBO1 221627Z 36011KT 18/09 A3018 RMK A01 T01800086  RH  054%=      5-min Rain = 0
KBO1 221628Z 36010KT 18/08 A3018 RMK A01 T01840084  RH  052%=      5-min Rain = 0
KBO1 221629Z 01011KT 18/09 A3018 RMK A01 T01840085  RH  052%=      5-min Rain = 0
KBO1 221630Z 01010KT 19/08 A3018 RMK A01 T01850084  RH  052%=      5-min Rain = 0
KBO1 221631Z 03011KT 19/08 A3018 RMK A01 T01850084  RH  052%=      5-min Rain = 0
KBO1 221632Z 02009KT 18/08 A3018 RMK A01 T01840083  RH  052%=      5-min Rain = 0
KBO1 221633Z 01010KT 18/08 A3018 RMK A01 T01820084  RH  053%=      5-min Rain = 0
KBO1 221634Z 01010KT 18/09 A3018 RMK A01 T01820085  RH  053%=      5-min Rain = 0
KBO1 221635Z 02010KT 18/08 A3018 RMK A01 T01830083  RH  052%=      5-min Rain = 0
KBO1 221636Z 35011KT 18/09 A3018 RMK A01 T01830086  RH  053%=      5-min Rain = 0
KBO1 221637Z 35008KT 18/08 A3018 RMK A01 T01830083  RH  052%=      5-min Rain = 0
KBO1 221638Z 36007KT 18/09 A3018 RMK A01 T01830086  RH  053%=      5-min Rain = 0
KBO1 221639Z 36009KT 18/09 A3018 RMK A01 T01840088  RH  053%=      5-min Rain = 0
KBO1 221640Z 35010KT 19/09 A3018 RMK A01 T01870090  RH  053%=      5-min Rain = 0
KBO1 221641Z 34007KT 19/09 A3018 RMK A01 T01900089  RH  052%=      5-min Rain = 0
KBO1 221642Z 00007KT 19/09 A3018 RMK A01 T01900089  RH  052%=      5-min Rain = 0
KBO1 221643Z 01008KT 19/09 A3018 RMK A01 T01890091  RH  053%=      5-min Rain = 0
KBO1 221644Z 00008KT 19/09 A3018 RMK A01 T01890085  RH  051%=      5-min Rain = 0
KBO1 221645Z 01009G14KT 19/09 A3018 RMK A01 T01860086  RH  052%=      5-min Rain = 0
KBO1 221646Z 01012KT 19/09 A3018 RMK A01 T01860086  RH  052%=      5-min Rain = 0
KBO1 221647Z 00008KT 19/09 A3018 RMK A01 T01850087  RH  053%=      5-min Rain = 0
KBO1 221648Z 36007KT 19/09 A3018 RMK A01 T01860085  RH  052%=      5-min Rain = 0
KBO1 221649Z 34008KT 19/09 A3017 RMK A01 T01860087  RH  053%=      5-min Rain = 0
KBO1 221650Z 35007KT 19/09 A3017 RMK A01 T01860088  RH  053%=      5-min Rain = 0
KBO1 221651Z 02010G15KT 19/09 A3017 RMK A01 T01890089  RH  052%=      5-min Rain = 0
KBO1 221652Z 03009KT 19/09 A3017 RMK A01 T01900089  RH  052%=      5-min Rain = 0
KBO1 221653Z 02007KT 19/09 A3017 RMK A01 T01890087  RH  051%=      5-min Rain = 0
KBO1 221654Z 02008KT 19/09 A3017 RMK A01 T01880088  RH  052%=      5-min Rain = 0
KBO1 221655Z 35008G13KT 19/09 A3017 RMK A01 T01890090  RH  053%=      5-min Rain = 0
KBO1 221656Z 33010KT 19/09 A3017 RMK A01 T01910090  RH  052%=      5-min Rain = 0
KBO1 221657Z 33013KT 19/09 A3017 RMK A01 T01920090  RH  052%=      5-min Rain = 0
KBO1 221658Z 34010KT 19/09 A3017 RMK A01 T01910090  RH  052%=      5-min Rain = 0
KBO1 221659Z 33008KT 19/09 A3017 RMK A01 T01900087  RH  051%=      5-min Rain = 0
KBO1 221700Z 00008KT 19/09 A3017 RMK A01 T01890089  RH  052%=      5-min Rain = 0
KBO1 221701Z 36004KT 19/09 A3017 RMK A01 T01890087  RH  052%=      5-min Rain = 0
KBO1 221702Z 01005KT 19/09 A3017 RMK A01 T01890091  RH  053%=      5-min Rain = 0
KBO1 221703Z 01007KT 19/09 A3017 RMK A01 T01910091  RH  052%=      5-min Rain = 0
KBO1 221704Z 34012KT 19/09 A3017 RMK A01 T01930090  RH  051%=      5-min Rain = 0
KBO1 221705Z 34012KT 19/09 A3017 RMK A01 T01930090  RH  051%=      5-min Rain = 0
KBO1 221706Z 34011KT 19/09 A3017 RMK A01 T01920091  RH  052%=      5-min Rain = 0
KBO1 221707Z 35009KT 19/09 A3017 RMK A01 T01940091  RH  051%=      5-min Rain = 0
KBO1 221708Z 34009KT 20/09 A3017 RMK A01 T01950090  RH  051%=      5-min Rain = 0
KBO1 221709Z 33009KT 19/09 A3017 RMK A01 T01940091  RH  051%=      5-min Rain = 0
KBO1 221710Z 33007KT 20/09 A3017 RMK A01 T01950091  RH  051%=      5-min Rain = 0
KBO1 221711Z 34007KT 20/09 A3017 RMK A01 T01960090  RH  050%=      5-min Rain = 0
KBO1 221712Z 35011KT 20/09 A3017 RMK A01 T01960090  RH  051%=      5-min Rain = 0
KBO1 221713Z 35009KT 20/09 A3017 RMK A01 T01950088  RH  050%=      5-min Rain = 0
KBO1 221714Z 35008KT 20/09 A3017 RMK A01 T01950089  RH  050%=      5-min Rain = 0
KBO1 221715Z 00006KT 19/09 A3017 RMK A01 T01930088  RH  051%=      5-min Rain = 0
KBO1 221716Z 36010KT 19/09 A3017 RMK A01 T01920089  RH  051%=      5-min Rain = 0
KBO1 221717Z 36009KT 19/09 A3017 RMK A01 T01930090  RH  051%=      5-min Rain = 0
KBO1 221718Z 35008KT 20/09 A3017 RMK A01 T01950092  RH  051%=      5-min Rain = 0
KBO1 221719Z 35009KT 20/09 A3017 RMK A01 T01980093  RH  051%=      5-min Rain = 0
KBO1 221720Z 33010KT 20/10 A3017 RMK A01 T02000096  RH  051%=      5-min Rain = 0
KBO1 221721Z 34011KT 20/10 A3017 RMK A01 T02020095  RH  050%=      5-min Rain = 0
KBO1 221722Z 34008KT 20/10 A3017 RMK A01 T02020095  RH  050%=      5-min Rain = 0
KBO1 221723Z 33008KT 20/10 A3017 RMK A01 T02020095  RH  050%=      5-min Rain = 0
KBO1 221724Z 33008KT 20/09 A3017 RMK A01 T02020092  RH  049%=      5-min Rain = 0
KBO1 221725Z 33008KT 20/09 A3017 RMK A01 T02010094  RH  050%=      5-min Rain = 0
KBO1 221726Z 35006KT 20/09 A3017 RMK A01 T01990091  RH  050%=      5-min Rain = 0
KBO1 221727Z 36009KT 20/09 A3017 RMK A01 T01980093  RH  051%=      5-min Rain = 0
KBO1 221728Z 34007KT 20/09 A3017 RMK A01 T01990091  RH  050%=      5-min Rain = 0
KBO1 221729Z 35008KT 20/09 A3017 RMK A01 T01980094  RH  051%=      5-min Rain = 0
KBO1 221730Z 34011KT 20/10 A3017 RMK A01 T02000096  RH  051%=      5-min Rain = 0
KBO1 221731Z 34010KT 20/10 A3017 RMK A01 T02020096  RH  050%=      5-min Rain = 0
KBO1 221732Z 33009KT 20/10 A3017 RMK A01 T02030096  RH  050%=      5-min Rain = 0
KBO1 221733Z 33009KT 20/10 A3017 RMK A01 T02030095  RH  050%=      5-min Rain = 0
KBO1 221734Z 32008KT 20/09 A3017 RMK A01 T02020094  RH  050%=      5-min Rain = 0
KBO1 221735Z 33008KT 20/10 A3017 RMK A01 T02010097  RH  051%=      5-min Rain = 0
KBO1 221736Z 34009KT 20/09 A3017 RMK A01 T02020094  RH  050%=      5-min Rain = 0
KBO1 221737Z 36007KT 20/10 A3017 RMK A01 T02010096  RH  051%=      5-min Rain = 0
KBO1 221738Z 01010KT 20/10 A3017 RMK A01 T02030099  RH  051%=      5-min Rain = 0
KBO1 221739Z 34009KT 21/10 A3017 RMK A01 T02050098  RH  050%=      5-min Rain = 0
KBO1 221740Z 00010KT 21/10 A3017 RMK A01 T02060096  RH  049%=      5-min Rain = 0
KBO1 221741Z 35011KT 21/09 A3017 RMK A01 T02050094  RH  049%=      5-min Rain = 0
KBO1 221742Z 35011KT 21/09 A3017 RMK A01 T02050094  RH  049%=      5-min Rain = 0
KBO1 221743Z 34009KT 20/09 A3017 RMK A01 T02040094  RH  049%=      5-min Rain = 0
KBO1 221744Z 33006KT 20/10 A3017 RMK A01 T02040095  RH  049%=      5-min Rain = 0
KBO1 221745Z 34009KT 21/10 A3016 RMK A01 T02050097  RH  050%=      5-min Rain = 0
KBO1 221746Z 35010KT 21/10 A3016 RMK A01 T02060098  RH  050%=      5-min Rain = 0
KBO1 221747Z 34010KT 21/10 A3016 RMK A01 T02070096  RH  049%=      5-min Rain = 0
KBO1 221748Z 33008KT 21/10 A3016 RMK A01 T02070096  RH  049%=      5-min Rain = 0
KBO1 221749Z 35007KT 21/10 A3016 RMK A01 T02050095  RH  049%=      5-min Rain = 0
KBO1 221750Z 35010KT 20/09 A3016 RMK A01 T02040094  RH  049%=      5-min Rain = 0
KBO1 221751Z 35012KT 20/09 A3016 RMK A01 T02030094  RH  049%=      5-min Rain = 0
KBO1 221752Z 36010KT 20/10 A3016 RMK A01 T02040096  RH  050%=      5-min Rain = 0
KBO1 221753Z 35008KT 21/10 A3016 RMK A01 T02060095  RH  049%=      5-min Rain = 0
KBO1 221754Z 34004KT 21/10 A3016 RMK A01 T02050095  RH  049%=      5-min Rain = 0
KBO1 221755Z 35005KT 21/10 A3016 RMK A01 T02050098  RH  050%=      5-min Rain = 0
KBO1 221756Z 35008KT 21/10 A3016 RMK A01 T02070095  RH  049%=      5-min Rain = 0
KBO1 221757Z 35009KT 21/10 A3016 RMK A01 T02080097  RH  049%=      5-min Rain = 0
KBO1 221758Z 35008KT 21/10 A3016 RMK A01 T02080095  RH  048%=      5-min Rain = 0
KBO1 221759Z 01007KT 21/10 A3016 RMK A01 T02080096  RH  049%=      5-min Rain = 0
KBO1 221800Z 34005KT 21/09 A3016 RMK A01 T02070094  RH  048%=      5-min Rain = 0
KBO1 221801Z 34007KT 21/10 A3016 RMK A01 T02060096  RH  049%=      5-min Rain = 0
KBO1 221802Z 34009KT 21/10 A3016 RMK A01 T02070099  RH  050%=      5-min Rain = 0
KBO1 221803Z 34012KT 21/10 A3016 RMK A01 T02100098  RH  049%=      5-min Rain = 0
KBO1 221804Z 01010KT 21/10 A3016 RMK A01 T02120096  RH  047%=      5-min Rain = 0
KBO1 221805Z 36007KT 21/09 A3016 RMK A01 T02110093  RH  047%=      5-min Rain = 0
KBO1 221806Z 34008KT 21/10 A3016 RMK A01 T02090096  RH  048%=      5-min Rain = 0
KBO1 221807Z 34008KT 21/09 A3016 RMK A01 T02090093  RH  047%=      5-min Rain = 0
KBO1 221808Z 34006KT 21/09 A3016 RMK A01 T02090094  RH  048%=      5-min Rain = 0
KBO1 221809Z 36006KT 21/09 A3016 RMK A01 T02090094  RH  048%=      5-min Rain = 0
KBO1 221810Z 34007KT 21/10 A3016 RMK A01 T02090095  RH  048%=      5-min Rain = 0
KBO1 221811Z 32008KT 21/09 A3016 RMK A01 T02090094  RH  048%=      5-min Rain = 0
KBO1 221812Z 32009KT 21/10 A3016 RMK A01 T02100095  RH  048%=      5-min Rain = 0
KBO1 221813Z 32006KT 21/10 A3016 RMK A01 T02110095  RH  048%=      5-min Rain = 0
KBO1 221814Z 02007KT 21/10 A3016 RMK A01 T02120096  RH  048%=      5-min Rain = 0
KBO1 221815Z 00007KT 21/10 A3016 RMK A01 T02130099  RH  048%=      5-min Rain = 0
KBO1 221816Z 01008KT 21/10 A3016 RMK A01 T02140097  RH  047%=      5-min Rain = 0
KBO1 221817Z 01007KT 21/10 A3016 RMK A01 T02140095  RH  047%=      5-min Rain = 0
KBO1 221818Z 02006KT 21/10 A3016 RMK A01 T02120095  RH  047%=      5-min Rain = 0
KBO1 221819Z 02007KT 21/10 A3016 RMK A01 T02120097  RH  048%=      5-min Rain = 0
KBO1 221820Z 02007KT 21/10 A3016 RMK A01 T02120096  RH  047%=      5-min Rain = 0
KBO1 221821Z 35008KT 21/10 A3016 RMK A01 T02130099  RH  048%=      5-min Rain = 0
KBO1 221822Z 35009KT 22/10 A3016 RMK A01 T02150096  RH  046%=      5-min Rain = 0
KBO1 221823Z 34009KT 22/09 A3016 RMK A01 T02160094  RH  046%=      5-min Rain = 0
KBO1 221824Z 33006KT 22/09 A3016 RMK A01 T02170094  RH  045%=      5-min Rain = 0
KBO1 221825Z 35008KT 22/10 A3016 RMK A01 T02170097  RH  046%=      5-min Rain = 0
KBO1 221826Z 01008KT 22/09 A3016 RMK A01 T02180094  RH  045%=      5-min Rain = 0
KBO1 221827Z 02005KT 22/09 A3016 RMK A01 T02160092  RH  045%=      5-min Rain = 0
KBO1 221828Z 35005KT 21/09 A3016 RMK A01 T02140094  RH  046%=      5-min Rain = 0
KBO1 221829Z 35007KT 22/10 A3016 RMK A01 T02160098  RH  047%=      5-min Rain = 0
KBO1 221830Z 36007KT 22/10 A3016 RMK A01 T02170095  RH  045%=      5-min Rain = 0
KBO1 221831Z 34005KT 22/09 A3016 RMK A01 T02160091  RH  045%=      5-min Rain = 0
KBO1 221832Z 36004KT 21/09 A3016 RMK A01 T02130090  RH  045%=      5-min Rain = 0
KBO1 221833Z 35009KT 21/09 A3016 RMK A01 T02120092  RH  046%=      5-min Rain = 0
KBO1 221834Z 35007KT 21/09 A3016 RMK A01 T02120091  RH  046%=      5-min Rain = 0
KBO1 221835Z 33004KT 21/09 A3016 RMK A01 T02140092  RH  046%=      5-min Rain = 0
KBO1 221836Z 00008KT 22/09 A3016 RMK A01 T02150094  RH  046%=      5-min Rain = 0
KBO1 221837Z 01008KT 22/10 A3016 RMK A01 T02190096  RH  046%=      5-min Rain = 0
KBO1 221838Z 36006KT 22/09 A3016 RMK A01 T02220094  RH  044%=      5-min Rain = 0
KBO1 221839Z 02006KT 22/10 A3015 RMK A01 T02210095  RH  045%=      5-min Rain = 0
KBO1 221840Z 01005KT 22/09 A3015 RMK A01 T02190091  RH  044%=      5-min Rain = 0
KBO1 221841Z 02004KT 22/10 A3015 RMK A01 T02170097  RH  046%=      5-min Rain = 0
KBO1 221842Z 01009KT 22/09 A3015 RMK A01 T02190093  RH  044%=      5-min Rain = 0
KBO1 221843Z 36008KT 22/09 A3015 RMK A01 T02190092  RH  044%=      5-min Rain = 0
KBO1 221844Z 00005KT 22/09 A3015 RMK A01 T02180091  RH  044%=      5-min Rain = 0
KBO1 221845Z 03004KT 22/09 A3015 RMK A01 T02160091  RH  045%=      5-min Rain = 0
KBO1 221846Z 03006KT 22/10 A3015 RMK A01 T02160096  RH  046%=      5-min Rain = 0
KBO1 221847Z 02009KT 22/10 A3015 RMK A01 T02190096  RH  045%=      5-min Rain = 0
KBO1 221848Z 00007KT 22/10 A3015 RMK A01 T02210095  RH  045%=      5-min Rain = 0
KBO1 221849Z 01005KT 22/09 A3015 RMK A01 T02210091  RH  043%=      5-min Rain = 0
KBO1 221850Z 02006KT 22/09 A3015 RMK A01 T02190093  RH  044%=      5-min Rain = 0
KBO1 221851Z 04005KT 22/09 A3015 RMK A01 T02180094  RH  045%=      5-min Rain = 0
KBO1 221852Z 01004KT 22/10 A3015 RMK A01 T02200099  RH  046%=      5-min Rain = 0
KBO1 221853Z 32009KT 22/09 A3015 RMK A01 T02230093  RH  044%=      5-min Rain = 0
KBO1 221854Z 33008KT 22/09 A3015 RMK A01 T02240090  RH  042%=      5-min Rain = 0
KBO1 221855Z 32008KT 22/09 A3015 RMK A01 T02230091  RH  043%=      5-min Rain = 0
KBO1 221856Z 33007KT 22/09 A3015 RMK A01 T02230089  RH  042%=      5-min Rain = 0
KBO1 221857Z 31006KT 22/09 A3015 RMK A01 T02210087  RH  042%=      5-min Rain = 0
KBO1 221858Z 30004KT 22/09 A3015 RMK A01 T02210090  RH  043%=      5-min Rain = 0
KBO1 221859Z 02004KT 22/09 A3015 RMK A01 T02220093  RH  044%=      5-min Rain = 0
KBO1 221900Z 02004KT 22/09 A3015 RMK A01 T02240094  RH  044%=      5-min Rain = 0
KBO1 221901Z 33004KT 23/09 A3015 RMK A01 T02250093  RH  043%=      5-min Rain = 0
KBO1 221902Z 35006KT 23/09 A3015 RMK A01 T02250094  RH  043%=      5-min Rain = 0
KBO1 221903Z 35005KT 23/10 A3015 RMK A01 T02250095  RH  043%=      5-min Rain = 0
KBO1 221904Z 01006KT 23/09 A3015 RMK A01 T02250094  RH  043%=      5-min Rain = 0
KBO1 221905Z 35007G12KT 23/10 A3015 RMK A01 T02270098  RH  044%=      5-min Rain = 0
KBO1 221906Z 00006KT 23/10 A3015 RMK A01 T02320099  RH  043%=      5-min Rain = 0
KBO1 221907Z 02008KT 23/09 A3015 RMK A01 T02330094  RH  041%=      5-min Rain = 0
KBO1 221908Z 02007KT 23/10 A3015 RMK A01 T02300095  RH  042%=      5-min Rain = 0
KBO1 221909Z 03005KT 23/09 A3015 RMK A01 T02290093  RH  042%=      5-min Rain = 0
KBO1 221910Z 04004KT 23/09 A3015 RMK A01 T02270094  RH  043%=      5-min Rain = 0
KBO1 221911Z 01007KT 23/09 A3015 RMK A01 T02270094  RH  043%=      5-min Rain = 0
KBO1 221912Z 02004KT 23/09 A3015 RMK A01 T02280092  RH  042%=      5-min Rain = 0
KBO1 221913Z 02004KT 23/09 A3015 RMK A01 T02280092  RH  042%=      5-min Rain = 0
KBO1 221914Z 03006KT 23/09 A3015 RMK A01 T02280092  RH  042%=      5-min Rain = 0
KBO1 221915Z 00004KT 23/09 A3015 RMK A01 T02280092  RH  042%=      5-min Rain = 0
KBO1 221916Z 33003KT 23/09 A3015 RMK A01 T02280092  RH  042%=      5-min Rain = 0
KBO1 221917Z 30004KT 23/09 A3015 RMK A01 T02280088  RH  041%=      5-min Rain = 0
KBO1 221918Z 02005KT 23/09 A3015 RMK A01 T02270092  RH  042%=      5-min Rain = 0
KBO1 221919Z 34005KT 23/09 A3015 RMK A01 T02300094  RH  042%=      5-min Rain = 0
KBO1 221920Z 33007KT 23/09 A3014 RMK A01 T02320088  RH  040%=      5-min Rain = 0
KBO1 221921Z 33005KT 23/09 A3014 RMK A01 T02310086  RH  039%=      5-min Rain = 0
KBO1 221922Z 33004KT 23/09 A3014 RMK A01 T02300086  RH  040%=      5-min Rain = 0
KBO1 221923Z 30004KT 23/09 A3014 RMK A01 T02300087  RH  040%=      5-min Rain = 0
KBO1 221924Z 30005KT 23/09 A3014 RMK A01 T02300087  RH  040%=      5-min Rain = 0
KBO1 221925Z 30005KT 23/09 A3014 RMK A01 T02300087  RH  040%=      5-min Rain = 0
KBO1 221926Z 34010KT 23/09 A3014 RMK A01 T02310090  RH  041%=      5-min Rain = 0
KBO1 221927Z 33006KT 23/09 A3014 RMK A01 T02310089  RH  040%=      5-min Rain = 0
KBO1 221928Z 34005KT 23/09 A3014 RMK A01 T02320089  RH  040%=      5-min Rain = 0
KBO1 221929Z 34005KT 23/09 A3014 RMK A01 T02310090  RH  040%=      5-min Rain = 0
KBO1 221930Z 32005KT 23/09 A3014 RMK A01 T02310093  RH  041%=      5-min Rain = 0
KBO1 221931Z 32003KT 23/09 A3014 RMK A01 T02330090  RH  040%=      5-min Rain = 0
KBO1 221932Z 31001KT 23/09 A3014 RMK A01 T02330089  RH  040%=      5-min Rain = 0
KBO1 221933Z 22001KT 23/09 A3014 RMK A01 T02340090  RH  040%=      5-min Rain = 0
KBO1 221934Z 26002KT 23/09 A3014 RMK A01 T02340086  RH  039%=      5-min Rain = 0
KBO1 221935Z 03002KT 24/09 A3014 RMK A01 T02350088  RH  039%=      5-min Rain = 0
KBO1 221936Z 01006KT 24/09 A3014 RMK A01 T02350089  RH  039%=      5-min Rain = 0
KBO1 221937Z 00006KT 24/09 A3014 RMK A01 T02360086  RH  038%=      5-min Rain = 0
KBO1 221938Z 36004KT 23/09 A3014 RMK A01 T02340089  RH  040%=      5-min Rain = 0
KBO1 221939Z 02003KT 23/09 A3014 RMK A01 T02340088  RH  039%=      5-min Rain = 0
KBO1 221940Z 02004KT 23/09 A3014 RMK A01 T02330086  RH  039%=      5-min Rain = 0
KBO1 221941Z 02002KT 23/09 A3014 RMK A01 T02330087  RH  039%=      5-min Rain = 0
KBO1 221942Z 27001KT 23/09 A3014 RMK A01 T02340088  RH  039%=      5-min Rain = 0
KBO1 221943Z 29001KT 24/09 A3014 RMK A01 T02360092  RH  040%=      5-min Rain = 0
KBO1 221944Z 06003KT 24/09 A3014 RMK A01 T02380089  RH  039%=      5-min Rain = 0
KBO1 221945Z 04004KT 24/09 A3014 RMK A01 T02400094  RH  040%=      5-min Rain = 0
KBO1 221946Z 35003KT 24/09 A3014 RMK A01 T02420087  RH  037%=      5-min Rain = 0
KBO1 221947Z 35007G12KT 24/09 A3014 RMK A01 T02430088  RH  037%=      5-min Rain = 0
KBO1 221948Z 35006KT 24/09 A3014 RMK A01 T02440085  RH  036%=      5-min Rain = 0
KBO1 221949Z 34005KT 24/09 A3014 RMK A01 T02430093  RH  038%=      5-min Rain = 0
KBO1 221950Z 34005KT 25/08 A3014 RMK A01 T02460084  RH  036%=      5-min Rain = 0
KBO1 221951Z 32003KT 24/08 A3014 RMK A01 T02430082  RH  036%=      5-min Rain = 0
KBO1 221952Z 34000KT 24/08 A3014 RMK A01 T02410080  RH  036%=      5-min Rain = 0
KBO1 221953Z 31000KT 24/08 A3014 RMK A01 T02400082  RH  036%=      5-min Rain = 0
KBO1 221954Z 30001KT 24/08 A3014 RMK A01 T02420082  RH  036%=      5-min Rain = 0
KBO1 221955Z 31003KT 24/09 A3014 RMK A01 T02430085  RH  037%=      5-min Rain = 0
KBO1 221956Z 33000KT 24/08 A3014 RMK A01 T02430082  RH  036%=      5-min Rain = 0
KBO1 221957Z 05004KT 24/09 A3014 RMK A01 T02430085  RH  037%=      5-min Rain = 0
KBO1 221958Z 06005KT 24/09 A3014 RMK A01 T02430086  RH  037%=      5-min Rain = 0
KBO1 221959Z 05006KT 24/09 A3013 RMK A01 T02420088  RH  037%=      5-min Rain = 0
KBO1 222000Z 05006KT 24/09 A3013 RMK A01 T02410088  RH  038%=      5-min Rain = 0
KBO1 222001Z 03004KT 24/09 A3013 RMK A01 T02420090  RH  038%=      5-min Rain = 0
KBO1 222002Z 02003KT 24/09 A3013 RMK A01 T02440088  RH  037%=      5-min Rain = 0
KBO1 222003Z 04002KT 25/09 A3013 RMK A01 T02450088  RH  037%=      5-min Rain = 0
KBO1 222004Z 05003KT 25/09 A3013 RMK A01 T02460090  RH  037%=      5-min Rain = 0
KBO1 222005Z 04003KT 25/09 A3013 RMK A01 T02460090  RH  037%=      5-min Rain = 0
KBO1 222006Z 04005KT 25/09 A3013 RMK A01 T02470091  RH  037%=      5-min Rain = 0
KBO1 222007Z 05005KT 25/09 A3013 RMK A01 T02470093  RH  038%=      5-min Rain = 0
KBO1 222008Z 01006KT 25/09 A3013 RMK A01 T02470090  RH  037%=      5-min Rain = 0
KBO1 222009Z 35006KT 25/09 A3013 RMK A01 T02450086  RH  036%=      5-min Rain = 0
KBO1 222010Z 36006KT 24/09 A3013 RMK A01 T02420087  RH  037%=      5-min Rain = 0
KBO1 222011Z 35005KT 24/09 A3013 RMK A01 T02410086  RH  037%=      5-min Rain = 0
KBO1 222012Z 33003KT 24/09 A3013 RMK A01 T02390085  RH  037%=      5-min Rain = 0
KBO1 222013Z 01001KT 24/09 A3013 RMK A01 T02380088  RH  038%=      5-min Rain = 0
KBO1 222014Z 07000KT 24/09 A3013 RMK A01 T02390087  RH  038%=      5-min Rain = 0
KBO1 222015Z 14001KT 24/09 A3013 RMK A01 T02420090  RH  038%=      5-min Rain = 0
KBO1 222016Z 18002KT 25/09 A3013 RMK A01 T02450091  RH  038%=      5-min Rain = 0
KBO1 222017Z 24002KT 25/09 A3013 RMK A01 T02480088  RH  036%=      5-min Rain = 0
KBO1 222018Z 27001KT 25/08 A3013 RMK A01 T02500078  RH  033%=      5-min Rain = 0
KBO1 222019Z 33003KT 25/08 A3013 RMK A01 T02510078  RH  033%=      5-min Rain = 0
KBO1 222020Z 02003KT 25/09 A3013 RMK A01 T02510085  RH  035%=      5-min Rain = 0
KBO1 222021Z 01007KT 25/09 A3013 RMK A01 T02500086  RH  035%=      5-min Rain = 0
KBO1 222022Z 04005KT 25/08 A3013 RMK A01 T02470083  RH  035%=      5-min Rain = 0
KBO1 222023Z 01003KT 24/08 A3013 RMK A01 T02440084  RH  036%=      5-min Rain = 0
KBO1 222024Z 19001KT 24/08 A3013 RMK A01 T02430083  RH  036%=      5-min Rain = 0
KBO1 222025Z 08000KT 24/09 A3013 RMK A01 T02440085  RH  036%=      5-min Rain = 0
KBO1 222026Z 35005KT 25/09 A3013 RMK A01 T02450088  RH  037%=      5-min Rain = 0
KBO1 222027Z 36004KT 25/09 A3013 RMK A01 T02460087  RH  036%=      5-min Rain = 0
KBO1 222028Z 01002KT 25/09 A3013 RMK A01 T02450086  RH  036%=      5-min Rain = 0
KBO1 222029Z 01001KT 25/08 A3013 RMK A01 T02450084  RH  036%=      5-min Rain = 0
KBO1 222030Z 35001KT 24/09 A3013 RMK A01 T02440085  RH  036%=      5-min Rain = 0
KBO1 222031Z 35005KT 25/08 A3013 RMK A01 T02450083  RH  036%=      5-min Rain = 0
KBO1 222032Z 01003KT 25/08 A3013 RMK A01 T02460082  RH  035%=      5-min Rain = 0
KBO1 222033Z 34006KT 25/08 A3013 RMK A01 T02480084  RH  035%=      5-min Rain = 0
KBO1 222034Z 34007KT 25/08 A3013 RMK A01 T02500082  RH  034%=      5-min Rain = 0
KBO1 222035Z 33006KT 25/08 A3012 RMK A01 T02500076  RH  033%=      5-min Rain = 0
KBO1 222036Z 33006KT 25/08 A3012 RMK A01 T02500077  RH  033%=      5-min Rain = 0
KBO1 222037Z 33006KT 25/08 A3012 RMK A01 T02520076  RH  033%=      5-min Rain = 0
KBO1 222038Z 32006KT 25/07 A3012 RMK A01 T02520073  RH  032%=      5-min Rain = 0
KBO1 222039Z 30005KT 25/08 A3012 RMK A01 T02490075  RH  033%=      5-min Rain = 0
KBO1 222040Z 31003KT 25/07 A3012 RMK A01 T02480071  RH  032%=      5-min Rain = 0
KBO1 222041Z 29002KT 25/07 A3012 RMK A01 T02470072  RH  033%=      5-min Rain = 0
KBO1 222042Z 28002KT 25/08 A3012 RMK A01 T02470075  RH  033%=      5-min Rain = 0
KBO1 222043Z 29003KT 25/08 A3012 RMK A01 T02480075  RH  033%=      5-min Rain = 0
KBO1 222044Z 31004KT 25/08 A3012 RMK A01 T02490076  RH  033%=      5-min Rain = 0
KBO1 222045Z 27002KT 25/07 A3012 RMK A01 T02490070  RH  032%=      5-min Rain = 0
KBO1 222046Z 26001KT 25/07 A3012 RMK A01 T02480069  RH  032%=      5-min Rain = 0
KBO1 222047Z 06001KT 25/07 A3012 RMK A01 T02470068  RH  032%=      5-min Rain = 0
KBO1 222048Z 08002KT 25/07 A3012 RMK A01 T02470068  RH  032%=      5-min Rain = 0
KBO1 222049Z 07001KT 25/07 A3012 RMK A01 T02470071  RH  032%=      5-min Rain = 0
KBO1 222050Z 06002KT 25/07 A3012 RMK A01 T02480070  RH  032%=      5-min Rain = 0
KBO1 222051Z 01006KT 25/08 A3012 RMK A01 T02490078  RH  034%=      5-min Rain = 0
KBO1 222052Z 01007KT 25/08 A3012 RMK A01 T02520079  RH  033%=      5-min Rain = 0
KBO1 222053Z 02005KT 25/08 A3012 RMK A01 T02510076  RH  033%=      5-min Rain = 0
KBO1 222054Z 03004KT 25/08 A3012 RMK A01 T02500078  RH  033%=      5-min Rain = 0
KBO1 222055Z 36004KT 25/08 A3012 RMK A01 T02490076  RH  033%=      5-min Rain = 0
KBO1 222056Z 33003KT 25/07 A3012 RMK A01 T02490074  RH  033%=      5-min Rain = 0
KBO1 222057Z 03000KT 25/08 A3012 RMK A01 T02480075  RH  033%=      5-min Rain = 0
KBO1 222058Z 26001KT 25/08 A3012 RMK A01 T02490077  RH  033%=      5-min Rain = 0
KBO1 222059Z 32004KT 25/08 A3012 RMK A01 T02510080  RH  034%=      5-min Rain = 0
KBO1 222100Z 34006KT 25/08 A3012 RMK A01 T02520079  RH  033%=      5-min Rain = 0
KBO1 222101Z 33004KT 25/07 A3012 RMK A01 T02520072  RH  032%=      5-min Rain = 0
KBO1 222102Z 32001KT 25/07 A3012 RMK A01 T02500072  RH  032%=      5-min Rain = 0
KBO1 222103Z 35002KT 25/07 A3012 RMK A01 T02500073  RH  032%=      5-min Rain = 0
KBO1 222104Z 33002KT 25/07 A3012 RMK A01 T02510070  RH  031%=      5-min Rain = 0
KBO1 222105Z 33001KT 25/07 A3012 RMK A01 T02500065  RH  031%=      5-min Rain = 0
KBO1 222106Z 28000KT 25/07 A3012 RMK A01 T02490068  RH  031%=      5-min Rain = 0
KBO1 222107Z 00000KT 25/07 A3012 RMK A01 T02500068  RH  031%=      5-min Rain = 0
KBO1 222108Z 00000KT 25/07 A3012 RMK A01 T02510070  RH  031%=      5-min Rain = 0
KBO1 222109Z 32002KT 25/07 A3012 RMK A01 T02540073  RH  032%=      5-min Rain = 0
KBO1 222110Z 33004KT 26/07 A3012 RMK A01 T02550072  RH  031%=      5-min Rain = 0
KBO1 222111Z 31001KT 26/07 A3012 RMK A01 T02550068  RH  030%=      5-min Rain = 0
KBO1 222112Z 34002KT 25/06 A3012 RMK A01 T02540063  RH  029%=      5-min Rain = 0
KBO1 222113Z 31003KT 25/07 A3012 RMK A01 T02530065  RH  030%=      5-min Rain = 0
KBO1 222114Z 29005KT 25/06 A3012 RMK A01 T02530057  RH  028%=      5-min Rain = 0
KBO1 222115Z 29004KT 26/06 A3012 RMK A01 T02550063  RH  029%=      5-min Rain = 0
KBO1 222116Z 30005KT 25/07 A3012 RMK A01 T02540067  RH  030%=      5-min Rain = 0
KBO1 222117Z 30005KT 26/07 A3012 RMK A01 T02550066  RH  030%=      5-min Rain = 0
KBO1 222118Z 28005KT 26/06 A3012 RMK A01 T02550062  RH  029%=      5-min Rain = 0
KBO1 222119Z 28005KT 26/07 A3012 RMK A01 T02560065  RH  029%=      5-min Rain = 0
KBO1 222120Z 31003KT 26/07 A3012 RMK A01 T02570067  RH  030%=      5-min Rain = 0
KBO1 222121Z 31003KT 26/07 A3012 RMK A01 T02560069  RH  030%=      5-min Rain = 0
KBO1 222122Z 33002KT 26/06 A3012 RMK A01 T02570061  RH  029%=      5-min Rain = 0
KBO1 222123Z 01003KT 26/07 A3012 RMK A01 T02560071  RH  031%=      5-min Rain = 0
KBO1 222124Z 04002KT 26/08 A3012 RMK A01 T02560077  RH  032%=      5-min Rain = 0
KBO1 222125Z 03005KT 26/07 A3012 RMK A01 T02570074  RH  031%=      5-min Rain = 0
KBO1 222126Z 04004KT 26/07 A3012 RMK A01 T02560072  RH  031%=      5-min Rain = 0
KBO1 222127Z 03003KT 26/07 A3012 RMK A01 T02550071  RH  031%=      5-min Rain = 0
KBO1 222128Z 05004KT 26/07 A3012 RMK A01 T02550069  RH  031%=      5-min Rain = 0
KBO1 222129Z 06004KT 25/07 A3012 RMK A01 T02540068  RH  030%=      5-min Rain = 0
KBO1 222130Z 06003KT 25/07 A3012 RMK A01 T02530066  RH  030%=      5-min Rain = 0
KBO1 222131Z 34002KT 25/07 A3012 RMK A01 T02520066  RH  030%=      5-min Rain = 0
KBO1 222132Z 29003KT 25/06 A3012 RMK A01 T02520064  RH  030%=      5-min Rain = 0
KBO1 222133Z 25003KT 25/07 A3012 RMK A01 T02510065  RH  030%=      5-min Rain = 0
KBO1 222134Z 26003KT 25/07 A3012 RMK A01 T02520069  RH  031%=      5-min Rain = 0
KBO1 222135Z 22003KT 25/07 A3012 RMK A01 T02530067  RH  031%=      5-min Rain = 0
KBO1 222136Z 22002KT 25/07 A3012 RMK A01 T02540070  RH  031%=      5-min Rain = 0
KBO1 222137Z 07001KT 26/07 A3012 RMK A01 T02550069  RH  030%=      5-min Rain = 0
KBO1 222138Z 06004KT 26/07 A3012 RMK A01 T02570070  RH  030%=      5-min Rain = 0
KBO1 222139Z 05006KT 26/07 A3012 RMK A01 T02580070  RH  030%=      5-min Rain = 0
KBO1 222140Z 03008KT 26/07 A3012 RMK A01 T02580068  RH  030%=      5-min Rain = 0
KBO1 222141Z 01005KT 26/07 A3012 RMK A01 T02580070  RH  030%=      5-min Rain = 0
KBO1 222142Z 03006KT 26/07 A3012 RMK A01 T02550071  RH  031%=      5-min Rain = 0
KBO1 222143Z 05006KT 26/07 A3012 RMK A01 T02550074  RH  032%=      5-min Rain = 0
KBO1 222144Z 04005KT 26/07 A3012 RMK A01 T02560070  RH  030%=      5-min Rain = 0
KBO1 222145Z 34004KT 26/07 A3012 RMK A01 T02560065  RH  029%=      5-min Rain = 0
KBO1 222146Z 34007KT 26/07 A3012 RMK A01 T02580067  RH  029%=      5-min Rain = 0
KBO1 222147Z 32008KT 26/06 A3012 RMK A01 T02590064  RH  029%=      5-min Rain = 0
KBO1 222148Z 32009KT 26/06 A3012 RMK A01 T02590064  RH  029%=      5-min Rain = 0
KBO1 222149Z 34008KT 26/06 A3012 RMK A01 T02570062  RH  029%=      5-min Rain = 0
KBO1 222150Z 00007KT 26/06 A3012 RMK A01 T02560062  RH  029%=      5-min Rain = 0
KBO1 222151Z 35007KT 26/06 A3012 RMK A01 T02560061  RH  029%=      5-min Rain = 0
KBO1 222152Z 36006KT 26/06 A3012 RMK A01 T02550059  RH  028%=      5-min Rain = 0
KBO1 222153Z 33006KT 25/06 A3012 RMK A01 T02540060  RH  029%=      5-min Rain = 0
KBO1 222154Z 33005KT 25/06 A3012 RMK A01 T02530061  RH  029%=      5-min Rain = 0
KBO1 222155Z 32004KT 25/06 A3012 RMK A01 T02540058  RH  028%=      5-min Rain = 0
KBO1 222156Z 33004KT 25/06 A3012 RMK A01 T02540056  RH  028%=      5-min Rain = 0
KBO1 222157Z 02003KT 25/06 A3012 RMK A01 T02540055  RH  028%=      5-min Rain = 0
KBO1 222158Z 04003KT 25/06 A3012 RMK A01 T02540060  RH  029%=      5-min Rain = 0
KBO1 222159Z 00003KT 26/06 A3012 RMK A01 T02560058  RH  028%=      5-min Rain = 0
KBO1 222200Z 33004KT 26/06 A3012 RMK A01 T02570060  RH  028%=      5-min Rain = 0
KBO1 222201Z 34004KT 26/06 A3012 RMK A01 T02580057  RH  028%=      5-min Rain = 0
KBO1 222202Z 36004KT 26/06 A3012 RMK A01 T02580060  RH  028%=      5-min Rain = 0
KBO1 222203Z 01002KT 26/06 A3012 RMK A01 T02590061  RH  028%=      5-min Rain = 0
KBO1 222204Z 00002KT 26/06 A3012 RMK A01 T02600058  RH  028%=      5-min Rain = 0
KBO1 222205Z 33004KT 26/06 A3012 RMK A01 T02610059  RH  028%=      5-min Rain = 0
KBO1 222206Z 34006KT 26/06 A3012 RMK A01 T02610059  RH  027%=      5-min Rain = 0
KBO1 222207Z 36003KT 26/06 A3012 RMK A01 T02600057  RH  027%=      5-min Rain = 0
KBO1 222208Z 32002KT 26/06 A3012 RMK A01 T02580058  RH  028%=      5-min Rain = 0
KBO1 222209Z 28002KT 26/06 A3012 RMK A01 T02570057  RH  028%=      5-min Rain = 0
KBO1 222210Z 32002KT 26/06 A3012 RMK A01 T02570056  RH  028%=      5-min Rain = 0
KBO1 222211Z 32001KT 26/06 A3012 RMK A01 T02570058  RH  028%=      5-min Rain = 0
KBO1 222212Z 26002KT 26/06 A3012 RMK A01 T02570060  RH  028%=      5-min Rain = 0
KBO1 222213Z 25002KT 26/06 A3012 RMK A01 T02570059  RH  028%=      5-min Rain = 0
KBO1 222214Z 26002KT 26/06 A3012 RMK A01 T02580058  RH  028%=      5-min Rain = 0
KBO1 222215Z 25001KT 26/06 A3012 RMK A01 T02570057  RH  028%=      5-min Rain = 0
KBO1 222216Z 25000KT 26/06 A3012 RMK A01 T02570057  RH  028%=      5-min Rain = 0
KBO1 222217Z 25001KT 26/06 A3012 RMK A01 T02590058  RH  027%=      5-min Rain = 0
KBO1 222218Z 26003KT 26/07 A3012 RMK A01 T02620065  RH  028%=      5-min Rain = 0
KBO1 222219Z 28003KT 27/06 A3012 RMK A01 T02650057  RH  027%=      5-min Rain = 0
KBO1 222220Z 30004KT 27/06 A3012 RMK A01 T02650056  RH  026%=      5-min Rain = 0
KBO1 222221Z 32003KT 26/06 A3012 RMK A01 T02640060  RH  027%=      5-min Rain = 0
KBO1 222222Z 30003KT 26/06 A3012 RMK A01 T02640058  RH  027%=      5-min Rain = 0
KBO1 222223Z 29003KT 26/06 A3012 RMK A01 T02630061  RH  028%=      5-min Rain = 0
KBO1 222224Z 29003KT 26/06 A3012 RMK A01 T02630057  RH  027%=      5-min Rain = 0
KBO1 222225Z 32001KT 26/05 A3012 RMK A01 T02620053  RH  026%=      5-min Rain = 0
KBO1 222226Z 33002KT 26/06 A3012 RMK A01 T02610058  RH  027%=      5-min Rain = 0
KBO1 222227Z 35000KT 26/06 A3012 RMK A01 T02620061  RH  028%=      5-min Rain = 0
KBO1 222228Z 03001KT 26/06 A3012 RMK A01 T02630056  RH  027%=      5-min Rain = 0
KBO1 222229Z 03001KT 26/06 A3012 RMK A01 T02630055  RH  026%=      5-min Rain = 0
KBO1 222230Z 05002KT 26/06 A3012 RMK A01 T02620059  RH  027%=      5-min Rain = 0
KBO1 222231Z 05002KT 26/06 A3012 RMK A01 T02630057  RH  027%=      5-min Rain = 0
KBO1 222232Z 08005KT 26/06 A3012 RMK A01 T02630061  RH  027%=      5-min Rain = 0
KBO1 222233Z 08004KT 26/06 A3012 RMK A01 T02630062  RH  028%=      5-min Rain = 0
KBO1 222234Z 09007KT 26/07 A3012 RMK A01 T02610065  RH  029%=      5-min Rain = 0
KBO1 222235Z 07008KT 26/07 A3012 RMK A01 T02610068  RH  029%=      5-min Rain = 0
KBO1 222236Z 06006KT 26/07 A3012 RMK A01 T02620065  RH  028%=      5-min Rain = 0
KBO1 222237Z 08006KT 26/07 A3012 RMK A01 T02610066  RH  029%=      5-min Rain = 0
KBO1 222238Z 10005KT 26/07 A3012 RMK A01 T02600065  RH  029%=      5-min Rain = 0
KBO1 222239Z 08004KT 26/06 A3012 RMK A01 T02590063  RH  029%=      5-min Rain = 0
KBO1 222240Z 09004KT 26/06 A3012 RMK A01 T02570062  RH  029%=      5-min Rain = 0
KBO1 222241Z 07004KT 26/07 A3012 RMK A01 T02560065  RH  029%=      5-min Rain = 0
KBO1 222242Z 05004KT 26/06 A3012 RMK A01 T02570064  RH  029%=      5-min Rain = 0
KBO1 222243Z 05005KT 26/07 A3012 RMK A01 T02580066  RH  029%=      5-min Rain = 0
KBO1 222244Z 07005KT 26/07 A3012 RMK A01 T02580065  RH  029%=      5-min Rain = 0
KBO1 222245Z 05004KT 26/06 A3012 RMK A01 T02580064  RH  029%=      5-min Rain = 0
KBO1 222246Z 04006KT 26/07 A3012 RMK A01 T02580065  RH  029%=      5-min Rain = 0
KBO1 222247Z 04005KT 26/07 A3012 RMK A01 T02580067  RH  029%=      5-min Rain = 0
KBO1 222248Z 06007KT 26/07 A3012 RMK A01 T02590068  RH  030%=      5-min Rain = 0
KBO1 222249Z 06007KT 26/07 A3012 RMK A01 T02600067  RH  029%=      5-min Rain = 0
KBO1 222250Z 06006KT 26/07 A3012 RMK A01 T02600066  RH  029%=      5-min Rain = 0
KBO1 222251Z 04006KT 26/07 A3012 RMK A01 T02600065  RH  029%=      5-min Rain = 0
KBO1 222252Z 05004KT 26/06 A3012 RMK A01 T02580064  RH  029%=      5-min Rain = 0
KBO1 222253Z 03004KT 26/07 A3012 RMK A01 T02580066  RH  029%=      5-min Rain = 0
KBO1 222254Z 05002KT 26/07 A3012 RMK A01 T02590068  RH  029%=      5-min Rain = 0
KBO1 222255Z 11004KT 26/07 A3012 RMK A01 T02610068  RH  029%=      5-min Rain = 0
KBO1 222256Z 10003KT 26/06 A3012 RMK A01 T02600061  RH  028%=      5-min Rain = 0
KBO1 222257Z 10005KT 26/07 A3012 RMK A01 T02590067  RH  029%=      5-min Rain = 0
KBO1 222258Z 10003KT 26/07 A3012 RMK A01 T02600068  RH  029%=      5-min Rain = 0
KBO1 222259Z 10002KT 26/07 A3012 RMK A01 T02610068  RH  029%=      5-min Rain = 0
KBO1 222300Z 05002KT 26/06 A3012 RMK A01 T02620064  RH  028%=      5-min Rain = 0
KBO1 222301Z 04006KT 26/07 A3012 RMK A01 T02610067  RH  029%=      5-min Rain = 0
KBO1 222302Z 04005KT 26/07 A3012 RMK A01 T02610066  RH  029%=      5-min Rain = 0
KBO1 222303Z 04003KT 26/06 A3012 RMK A01 T02600064  RH  029%=      5-min Rain = 0
KBO1 222304Z 06004KT 26/07 A3012 RMK A01 T02590067  RH  029%=      5-min Rain = 0
KBO1 222305Z 06004KT 26/07 A3012 RMK A01 T02600069  RH  030%=      5-min Rain = 0
KBO1 222306Z 07004KT 26/07 A3012 RMK A01 T02610070  RH  030%=      5-min Rain = 0
KBO1 222307Z 07003KT 26/07 A3012 RMK A01 T02610068  RH  029%=      5-min Rain = 0
KBO1 222308Z 06003KT 26/07 A3012 RMK A01 T02610068  RH  029%=      5-min Rain = 0
KBO1 222309Z 11005KT 26/07 A3012 RMK A01 T02610067  RH  029%=      5-min Rain = 0
KBO1 222310Z 11005KT 26/07 A3012 RMK A01 T02610068  RH  029%=      5-min Rain = 0
KBO1 222311Z 12003KT 26/07 A3012 RMK A01 T02590070  RH  030%=      5-min Rain = 0
KBO1 222312Z 14003KT 26/07 A3012 RMK A01 T02590070  RH  030%=      5-min Rain = 0
KBO1 222313Z 10002KT 26/07 A3012 RMK A01 T02600070  RH  030%=      5-min Rain = 0
KBO1 222314Z 07003KT 26/07 A3012 RMK A01 T02610072  RH  030%=      5-min Rain = 0
KBO1 222315Z 07004KT 26/07 A3012 RMK A01 T02620072  RH  030%=      5-min Rain = 0
KBO1 222316Z 06005KT 26/07 A3012 RMK A01 T02610071  RH  030%=      5-min Rain = 0
KBO1 222317Z 06003KT 26/07 A3012 RMK A01 T02600068  RH  029%=      5-min Rain = 0
KBO1 222318Z 06003KT 26/07 A3012 RMK A01 T02590072  RH  030%=      5-min Rain = 0
KBO1 222319Z 07006KT 26/07 A3012 RMK A01 T02600072  RH  030%=      5-min Rain = 0
KBO1 222320Z 06005KT 26/07 A3012 RMK A01 T02600070  RH  030%=      5-min Rain = 0
KBO1 222321Z 06005KT 26/07 A3012 RMK A01 T02590071  RH  030%=      5-min Rain = 0
KBO1 222322Z 06004KT 26/07 A3012 RMK A01 T02580072  RH  030%=      5-min Rain = 0
KBO1 222323Z 05005KT 26/07 A3012 RMK A01 T02590070  RH  030%=      5-min Rain = 0
KBO1 222324Z 06004KT 26/07 A3012 RMK A01 T02580069  RH  030%=      5-min Rain = 0
KBO1 222325Z 07004KT 26/07 A3012 RMK A01 T02580070  RH  030%=      5-min Rain = 0
KBO1 222326Z 09005KT 26/07 A3012 RMK A01 T02580068  RH  030%=      5-min Rain = 0
KBO1 222327Z 09006KT 26/07 A3012 RMK A01 T02570072  RH  031%=      5-min Rain = 0
KBO1 222328Z 08007KT 26/07 A3012 RMK A01 T02570072  RH  031%=      5-min Rain = 0
KBO1 222329Z 09007KT 26/07 A3012 RMK A01 T02570074  RH  031%=      5-min Rain = 0
KBO1 222330Z 07007KT 26/07 A3012 RMK A01 T02570074  RH  031%=      5-min Rain = 0
KBO1 222331Z 06007KT 26/07 A3012 RMK A01 T02570073  RH  031%=      5-min Rain = 0
KBO1 222332Z 08007KT 26/08 A3012 RMK A01 T02570075  RH  031%=      5-min Rain = 0
KBO1 222333Z 07007KT 26/07 A3012 RMK A01 T02560073  RH  031%=      5-min Rain = 0
KBO1 222334Z 07006KT 26/07 A3012 RMK A01 T02560070  RH  031%=      5-min Rain = 0
KBO1 222335Z 07005KT 25/07 A3012 RMK A01 T02540071  RH  031%=      5-min Rain = 0
KBO1 222336Z 06005KT 25/08 A3012 RMK A01 T02530076  RH  032%=      5-min Rain = 0
KBO1 222337Z 07008KT 26/08 A3012 RMK A01 T02550078  RH  032%=      5-min Rain = 0
KBO1 222338Z 08008KT 26/08 A3012 RMK A01 T02550077  RH  032%=      5-min Rain = 0
KBO1 222339Z 09007KT 26/08 A3012 RMK A01 T02550078  RH  032%=      5-min Rain = 0
KBO1 222340Z 07007KT 25/08 A3012 RMK A01 T02540077  RH  032%=      5-min Rain = 0
KBO1 222341Z 08007KT 25/08 A3012 RMK A01 T02540075  RH  032%=      5-min Rain = 0
KBO1 222342Z 07008KT 25/08 A3012 RMK A01 T02530075  RH  032%=      5-min Rain = 0
KBO1 222343Z 07007KT 25/08 A3012 RMK A01 T02530075  RH  032%=      5-min Rain = 0
KBO1 222344Z 07007KT 25/08 A3012 RMK A01 T02530075  RH  032%=      5-min Rain = 0
KBO1 222345Z 08007KT 25/08 A3012 RMK A01 T02520077  RH  033%=      5-min Rain = 0
KBO1 222346Z 08007KT 25/07 A3012 RMK A01 T02520074  RH  032%=      5-min Rain = 0
KBO1 222347Z 08006KT 25/08 A3012 RMK A01 T02520077  RH  033%=      5-min Rain = 0
KBO1 222348Z 07008KT 25/08 A3012 RMK A01 T02530078  RH  033%=      5-min Rain = 0
KBO1 222349Z 07007KT 25/08 A3012 RMK A01 T02530077  RH  033%=      5-min Rain = 0
KBO1 222350Z 07008KT 25/08 A3012 RMK A01 T02530077  RH  033%=      5-min Rain = 0
KBO1 222351Z 08008KT 25/07 A3012 RMK A01 T02530074  RH  032%=      5-min Rain = 0
KBO1 222352Z 08004KT 25/08 A3012 RMK A01 T02520075  RH  032%=      5-min Rain = 0
KBO1 222353Z 05007KT 25/08 A3012 RMK A01 T02520076  RH  033%=      5-min Rain = 0
KBO1 222354Z 05007KT 25/07 A3012 RMK A01 T02520074  RH  032%=      5-min Rain = 0
KBO1 222355Z 05007KT 25/08 A3012 RMK A01 T02510075  RH  032%=      5-min Rain = 0
KBO1 222356Z 05007KT 25/08 A3012 RMK A01 T02510075  RH  033%=      5-min Rain = 0
KBO1 222357Z 05007KT 25/08 A3012 RMK A01 T02500077  RH  033%=      5-min Rain = 0
KBO1 222358Z 05007KT 25/08 A3012 RMK A01 T02500079  RH  034%=      5-min Rain = 0
KBO1 222359Z 05007KT 25/08 A3012 RMK A01 T02500078  RH  033%=      5-min Rain = 0
KBO1 230000Z 06006KT 25/08 A3012 RMK A01 T02490079  RH  034%=      5-min Rain = 0
KBO1 230001Z 06007KT 25/08 A3012 RMK A01 T02490078  RH  034%=      5-min Rain = 0
KBO1 230002Z 06008KT 25/08 A3012 RMK A01 T02480077  RH  034%=      5-min Rain = 0
KBO1 230003Z 06008KT 25/08 A3012 RMK A01 T02480076  RH  033%=      5-min Rain = 0
KBO1 230004Z 07009KT 25/08 A3012 RMK A01 T02470076  RH  033%=      5-min Rain = 0
KBO1 230005Z 07009KT 25/08 A3012 RMK A01 T02460077  RH  034%=      5-min Rain = 0
KBO1 230006Z 07008KT 25/08 A3012 RMK A01 T02460078  RH  034%=      5-min Rain = 0
KBO1 230007Z 07007KT 25/08 A3012 RMK A01 T02460078  RH  034%=      5-min Rain = 0
KBO1 230008Z 07008KT 25/08 A3012 RMK A01 T02450080  RH  035%=      5-min Rain = 0
KBO1 230009Z 07008KT 25/08 A3012 RMK A01 T02450080  RH  035%=      5-min Rain = 0
KBO1 230010Z 06007KT 24/08 A3012 RMK A01 T02440079  RH  035%=      5-min Rain = 0
KBO1 230011Z 07007KT 24/08 A3012 RMK A01 T02430081  RH  036%=      5-min Rain = 0
KBO1 230012Z 06007KT 24/08 A3012 RMK A01 T02430082  RH  036%=      5-min Rain = 0
KBO1 230013Z 07009KT 24/08 A3012 RMK A01 T02420080  RH  036%=      5-min Rain = 0
KBO1 230014Z 07009KT 24/08 A3012 RMK A01 T02410080  RH  036%=      5-min Rain = 0
KBO1 230015Z 09006KT 24/08 A3012 RMK A01 T02410083  RH  037%=      5-min Rain = 0
KBO1 230016Z 10007KT 24/09 A3012 RMK A01 T02400086  RH  037%=      5-min Rain = 0
KBO1 230017Z 10007KT 24/08 A3012 RMK A01 T02390083  RH  037%=      5-min Rain = 0
KBO1 230018Z 09006KT 24/08 A3013 RMK A01 T02380083  RH  037%=      5-min Rain = 0
KBO1 230019Z 09006KT 24/09 A3013 RMK A01 T02370085  RH  038%=      5-min Rain = 0
KBO1 230020Z 10005KT 24/09 A3013 RMK A01 T02360085  RH  038%=      5-min Rain = 0
KBO1 230021Z 11005KT 24/09 A3013 RMK A01 T02350086  RH  039%=      5-min Rain = 0
KBO1 230022Z 11005KT 23/09 A3013 RMK A01 T02340087  RH  039%=      5-min Rain = 0
KBO1 230023Z 12007KT 23/09 A3013 RMK A01 T02330085  RH  039%=      5-min Rain = 0
KBO1 230024Z 12007KT 23/09 A3013 RMK A01 T02320086  RH  039%=      5-min Rain = 0
KBO1 230025Z 11008KT 23/08 A3013 RMK A01 T02310084  RH  039%=      5-min Rain = 0
KBO1 230026Z 11007KT 23/09 A3013 RMK A01 T02300085  RH  040%=      5-min Rain = 0
KBO1 230027Z 11007KT 23/09 A3013 RMK A01 T02280086  RH  040%=      5-min Rain = 0
KBO1 230028Z 11007KT 23/09 A3013 RMK A01 T02270086  RH  041%=      5-min Rain = 0
KBO1 230029Z 12007KT 23/09 A3013 RMK A01 T02250087  RH  041%=      5-min Rain = 0
KBO1 230030Z 12007KT 22/09 A3013 RMK A01 T02230087  RH  042%=      5-min Rain = 0
KBO1 230031Z 12008KT 22/09 A3013 RMK A01 T02220087  RH  042%=      5-min Rain = 0
KBO1 230032Z 11007KT 22/09 A3013 RMK A01 T02210087  RH  042%=      5-min Rain = 0
KBO1 230033Z 11008KT 22/09 A3013 RMK A01 T02200087  RH  043%=      5-min Rain = 0
KBO1 230034Z 11008KT 22/09 A3013 RMK A01 T02190086  RH  043%=      5-min Rain = 0
KBO1 230035Z 11008KT 22/09 A3013 RMK A01 T02180087  RH  043%=      5-min Rain = 0
KBO1 230036Z 11008KT 22/09 A3013 RMK A01 T02180087  RH  043%=      5-min Rain = 0
KBO1 230037Z 11008KT 22/09 A3013 RMK A01 T02170087  RH  043%=      5-min Rain = 0
KBO1 230038Z 11008KT 22/09 A3013 RMK A01 T02160086  RH  043%=      5-min Rain = 0
KBO1 230039Z 10008KT 22/09 A3013 RMK A01 T02160086  RH  043%=      5-min Rain = 0
KBO1 230040Z 10008KT 22/09 A3013 RMK A01 T02150086  RH  043%=      5-min Rain = 0
KBO1 230041Z 10008KT 22/09 A3013 RMK A01 T02150086  RH  044%=      5-min Rain = 0
KBO1 230042Z 10008KT 21/09 A3013 RMK A01 T02130087  RH  044%=      5-min Rain = 0
KBO1 230043Z 10008KT 21/09 A3013 RMK A01 T02120086  RH  044%=      5-min Rain = 0
KBO1 230044Z 10008KT 21/09 A3013 RMK A01 T02120086  RH  044%=      5-min Rain = 0
KBO1 230045Z 10008KT 21/09 A3013 RMK A01 T02120088  RH  045%=      5-min Rain = 0
KBO1 230046Z 10008KT 21/09 A3013 RMK A01 T02110088  RH  045%=      5-min Rain = 0
KBO1 230047Z 10007KT 21/09 A3013 RMK A01 T02090089  RH  046%=      5-min Rain = 0
KBO1 230048Z 10008KT 21/09 A3013 RMK A01 T02080089  RH  047%=      5-min Rain = 0
KBO1 230049Z 10008KT 21/09 A3013 RMK A01 T02070090  RH  047%=      5-min Rain = 0
KBO1 230050Z 10008KT 21/09 A3013 RMK A01 T02060090  RH  048%=      5-min Rain = 0
KBO1 230051Z 11009KT 21/09 A3013 RMK A01 T02050091  RH  048%=      5-min Rain = 0
KBO1 230052Z 10009KT 21/09 A3013 RMK A01 T02050092  RH  048%=      5-min Rain = 0
KBO1 230053Z 11009KT 21/09 A3013 RMK A01 T02050092  RH  048%=      5-min Rain = 0
KBO1 230054Z 11008KT 21/09 A3013 RMK A01 T02050093  RH  049%=      5-min Rain = 0
KBO1 230055Z 11008KT 20/09 A3013 RMK A01 T02040093  RH  049%=      5-min Rain = 0
KBO1 230056Z 11008KT 20/09 A3013 RMK A01 T02030094  RH  049%=      5-min Rain = 0
KBO1 230057Z 11009KT 20/09 A3013 RMK A01 T02020094  RH  050%=      5-min Rain = 0
KBO1 230058Z 11009KT 20/10 A3013 RMK A01 T02010095  RH  051%=      5-min Rain = 0
KBO1 230059Z 11009KT 20/10 A3013 RMK A01 T02000096  RH  051%=      5-min Rain = 0
KBO1 230100Z 11009KT 20/10 A3013 RMK A01 T01990096  RH  051%=      5-min Rain = 0
KBO1 230101Z 12008KT 20/10 A3013 RMK A01 T01990097  RH  052%=      5-min Rain = 0
KBO1 230102Z 12008KT 20/10 A3013 RMK A01 T01980098  RH  052%=      5-min Rain = 0
KBO1 230103Z 13009KT 20/10 A3013 RMK A01 T01970098  RH  053%=      5-min Rain = 0
KBO1 230104Z 12009KT 20/10 A3013 RMK A01 T01950098  RH  053%=      5-min Rain = 0
KBO1 230105Z 12009KT 19/10 A3013 RMK A01 T01940098  RH  054%=      5-min Rain = 0
KBO1 230106Z 12009KT 19/10 A3013 RMK A01 T01930099  RH  054%=      5-min Rain = 0
KBO1 230107Z 12008KT 19/10 A3013 RMK A01 T01930099  RH  054%=      5-min Rain = 0
KBO1 230108Z 12008KT 19/10 A3013 RMK A01 T01930100  RH  055%=      5-min Rain = 0
KBO1 230109Z 12008KT 19/10 A3013 RMK A01 T01930100  RH  055%=      5-min Rain = 0
KBO1 230110Z 12008KT 19/10 A3013 RMK A01 T01920101  RH  056%=      5-min Rain = 0
KBO1 230111Z 12008KT 19/10 A3013 RMK A01 T01900101  RH  056%=      5-min Rain = 0
KBO1 230112Z 12008KT 19/10 A3013 RMK A01 T01890101  RH  056%=      5-min Rain = 0
KBO1 230113Z 12009KT 19/10 A3013 RMK A01 T01890101  RH  057%=      5-min Rain = 0
KBO1 230114Z 12008KT 19/10 A3013 RMK A01 T01890101  RH  057%=      5-min Rain = 0
KBO1 230115Z 12008KT 19/10 A3013 RMK A01 T01890101  RH  057%=      5-min Rain = 0
KBO1 230116Z 12008KT 19/10 A3013 RMK A01 T01890101  RH  056%=      5-min Rain = 0
KBO1 230117Z 12008KT 19/10 A3013 RMK A01 T01900101  RH  056%=      5-min Rain = 0
KBO1 230118Z 12008KT 19/10 A3013 RMK A01 T01900101  RH  056%=      5-min Rain = 0
KBO1 230119Z 12009KT 19/10 A3013 RMK A01 T01900101  RH  056%=      5-min Rain = 0
KBO1 230120Z 12009KT 19/10 A3013 RMK A01 T01900101  RH  056%=      5-min Rain = 0
KBO1 230121Z 12008KT 19/10 A3013 RMK A01 T01900102  RH  057%=      5-min Rain = 0
KBO1 230122Z 12008KT 19/10 A3014 RMK A01 T01900103  RH  057%=      5-min Rain = 0
KBO1 230123Z 12008KT 19/10 A3013 RMK A01 T01890103  RH  057%=      5-min Rain = 0
KBO1 230124Z 12007KT 19/10 A3014 RMK A01 T01880103  RH  058%=      5-min Rain = 0
KBO1 230125Z 12008KT 19/10 A3014 RMK A01 T01880103  RH  058%=      5-min Rain = 0
KBO1 230126Z 12008KT 19/10 A3014 RMK A01 T01870104  RH  059%=      5-min Rain = 0
KBO1 230127Z 12008KT 19/10 A3014 RMK A01 T01860104  RH  059%=      5-min Rain = 0
KBO1 230128Z 12008KT 19/11 A3014 RMK A01 T01850105  RH  060%=      5-min Rain = 0
KBO1 230129Z 13008KT 18/11 A3014 RMK A01 T01840106  RH  060%=      5-min Rain = 0
KBO1 230130Z 13008KT 18/11 A3014 RMK A01 T01820106  RH  061%=      5-min Rain = 0
KBO1 230131Z 13008KT 18/11 A3014 RMK A01 T01810106  RH  061%=      5-min Rain = 0
KBO1 230132Z 13008KT 18/11 A3014 RMK A01 T01800106  RH  062%=      5-min Rain = 0
KBO1 230133Z 13008KT 18/11 A3014 RMK A01 T01790107  RH  062%=      5-min Rain = 0
KBO1 230134Z 13008KT 18/11 A3014 RMK A01 T01790108  RH  063%=      5-min Rain = 0
KBO1 230135Z 13009KT 18/11 A3014 RMK A01 T01790108  RH  063%=      5-min Rain = 0
KBO1 230136Z 13009KT 18/11 A3014 RMK A01 T01780108  RH  063%=      5-min Rain = 0
KBO1 230137Z 13009KT 18/11 A3014 RMK A01 T01790109  RH  064%=      5-min Rain = 0
KBO1 230138Z 13009KT 18/11 A3014 RMK A01 T01800110  RH  063%=      5-min Rain = 0
KBO1 230139Z 13009KT 18/11 A3014 RMK A01 T01800110  RH  063%=      5-min Rain = 0
KBO1 230140Z 13010KT 18/11 A3014 RMK A01 T01810110  RH  063%=      5-min Rain = 0
KBO1 230141Z 13009KT 18/11 A3014 RMK A01 T01820110  RH  063%=      5-min Rain = 0
KBO1 230142Z 13009KT 18/11 A3014 RMK A01 T01830110  RH  063%=      5-min Rain = 0
KBO1 230143Z 12009KT 18/11 A3014 RMK A01 T01820110  RH  063%=      5-min Rain = 0
KBO1 230144Z 13009KT 18/11 A3014 RMK A01 T01820111  RH  063%=      5-min Rain = 0
KBO1 230145Z 13009KT 18/11 A3014 RMK A01 T01820111  RH  063%=      5-min Rain = 0
KBO1 230146Z 13009KT 18/11 A3014 RMK A01 T01810111  RH  063%=      5-min Rain = 0
KBO1 230147Z 13009KT 18/11 A3014 RMK A01 T01810111  RH  064%=      5-min Rain = 0
KBO1 230148Z 13009KT 18/11 A3014 RMK A01 T01810111  RH  064%=      5-min Rain = 0
KBO1 230149Z 13008KT 18/11 A3014 RMK A01 T01810112  RH  064%=      5-min Rain = 0
KBO1 230150Z 13008KT 18/11 A3014 RMK A01 T01800112  RH  064%=      5-min Rain = 0
KBO1 230151Z 13008KT 18/11 A3014 RMK A01 T01800112  RH  065%=      5-min Rain = 0
KBO1 230152Z 13008KT 18/11 A3014 RMK A01 T01800113  RH  065%=      5-min Rain = 0
KBO1 230153Z 13008KT 18/11 A3014 RMK A01 T01790113  RH  065%=      5-min Rain = 0
KBO1 230154Z 14008KT 18/11 A3014 RMK A01 T01790113  RH  065%=      5-min Rain = 0
KBO1 230155Z 14008KT 18/11 A3014 RMK A01 T01780114  RH  066%=      5-min Rain = 0
KBO1 230156Z 14008KT 18/11 A3015 RMK A01 T01780114  RH  066%=      5-min Rain = 0
KBO1 230157Z 14008KT 18/11 A3015 RMK A01 T01770114  RH  067%=      5-min Rain = 0
KBO1 230158Z 14008KT 18/11 A3015 RMK A01 T01760114  RH  067%=      5-min Rain = 0
KBO1 230159Z 14008KT 18/11 A3015 RMK A01 T01750114  RH  067%=      5-min Rain = 0
KBO1 230200Z 14008KT 17/11 A3015 RMK A01 T01740114  RH  068%=      5-min Rain = 0
KBO1 230201Z 14007KT 17/11 A3015 RMK A01 T01740114  RH  068%=      5-min Rain = 0
KBO1 230202Z 14007KT 18/12 A3015 RMK A01 T01750115  RH  068%=      5-min Rain = 0
KBO1 230203Z 14007KT 18/11 A3015 RMK A01 T01750114  RH  068%=      5-min Rain = 0
KBO1 230204Z 14007KT 18/12 A3015 RMK A01 T01760115  RH  068%=      5-min Rain = 0
KBO1 230205Z 14008KT 18/12 A3015 RMK A01 T01760115  RH  067%=      5-min Rain = 0
KBO1 230206Z 14008KT 18/12 A3015 RMK A01 T01760115  RH  067%=      5-min Rain = 0
KBO1 230207Z 14008KT 18/12 A3015 RMK A01 T01760115  RH  068%=      5-min Rain = 0
KBO1 230208Z 14008KT 18/12 A3015 RMK A01 T01760116  RH  068%=      5-min Rain = 0
KBO1 230209Z 14007KT 18/12 A3015 RMK A01 T01760116  RH  068%=      5-min Rain = 0
KBO1 230210Z 14007KT 17/12 A3015 RMK A01 T01740116  RH  069%=      5-min Rain = 0
KBO1 230211Z 14007KT 17/12 A3015 RMK A01 T01730116  RH  069%=      5-min Rain = 0
KBO1 230212Z 14008KT 17/12 A3015 RMK A01 T01720117  RH  070%=      5-min Rain = 0
KBO1 230213Z 14008KT 17/12 A3015 RMK A01 T01720117  RH  070%=      5-min Rain = 0
KBO1 230214Z 14008KT 17/12 A3015 RMK A01 T01710117  RH  070%=      5-min Rain = 0
KBO1 230215Z 14008KT 17/12 A3015 RMK A01 T01710117  RH  071%=      5-min Rain = 0
KBO1 230216Z 14008KT 17/12 A3015 RMK A01 T01700118  RH  071%=      5-min Rain = 0
KBO1 230217Z 14008KT 17/12 A3015 RMK A01 T01700118  RH  071%=      5-min Rain = 0
KBO1 230218Z 14008KT 17/12 A3015 RMK A01 T01690118  RH  072%=      5-min Rain = 0
KBO1 230219Z 14009KT 17/12 A3015 RMK A01 T01680118  RH  072%=      5-min Rain = 0
KBO1 230220Z 14009KT 17/12 A3015 RMK A01 T01680119  RH  073%=      5-min Rain = 0
KBO1 230221Z 14009KT 17/12 A3015 RMK A01 T01680119  RH  073%=      5-min Rain = 0
KBO1 230222Z 14009KT 17/12 A3015 RMK A01 T01680119  RH  073%=      5-min Rain = 0
KBO1 230223Z 14009KT 17/12 A3015 RMK A01 T01680120  RH  073%=      5-min Rain = 0
KBO1 230224Z 14009KT 17/12 A3015 RMK A01 T01690120  RH  073%=      5-min Rain = 0
KBO1 230225Z 14009KT 17/12 A3015 RMK A01 T01700121  RH  073%=      5-min Rain = 0
KBO1 230226Z 15008KT 17/12 A3015 RMK A01 T01700121  RH  073%=      5-min Rain = 0
KBO1 230227Z 15008KT 17/12 A3015 RMK A01 T01710121  RH  072%=      5-min Rain = 0
KBO1 230228Z 15008KT 17/12 A3015 RMK A01 T01710121  RH  072%=      5-min Rain = 0
KBO1 230229Z 15008KT 17/12 A3015 RMK A01 T01710121  RH  072%=      5-min Rain = 0
KBO1 230230Z 15008KT 17/12 A3015 RMK A01 T01710121  RH  073%=      5-min Rain = 0
KBO1 230231Z 15008KT 17/12 A3015 RMK A01 T01710121  RH  073%=      5-min Rain = 0
KBO1 230232Z 14007KT 17/12 A3015 RMK A01 T01710121  RH  073%=      5-min Rain = 0
KBO1 230233Z 14007KT 17/12 A3015 RMK A01 T01700121  RH  073%=      5-min Rain = 0
KBO1 230234Z 14007KT 17/12 A3015 RMK A01 T01700121  RH  073%=      5-min Rain = 0
KBO1 230235Z 14007KT 17/12 A3015 RMK A01 T01700120  RH  073%=      5-min Rain = 0
KBO1 230236Z 14007KT 17/12 A3015 RMK A01 T01690120  RH  073%=      5-min Rain = 0
KBO1 230237Z 14007KT 17/12 A3015 RMK A01 T01680120  RH  073%=      5-min Rain = 0
KBO1 230238Z 14008KT 17/12 A3015 RMK A01 T01680120  RH  073%=      5-min Rain = 0
KBO1 230239Z 14007KT 17/12 A3015 RMK A01 T01670119  RH  073%=      5-min Rain = 0
KBO1 230240Z 14007KT 17/12 A3015 RMK A01 T01670119  RH  073%=      5-min Rain = 0
KBO1 230241Z 14007KT 17/12 A3015 RMK A01 T01670119  RH  073%=      5-min Rain = 0
KBO1 230242Z 14007KT 17/12 A3015 RMK A01 T01670119  RH  073%=      5-min Rain = 0
KBO1 230243Z 14007KT 17/12 A3015 RMK A01 T01670119  RH  073%=      5-min Rain = 0
KBO1 230244Z 14007KT 17/12 A3015 RMK A01 T01660119  RH  074%=      5-min Rain = 0
KBO1 230245Z 14007KT 17/12 A3016 RMK A01 T01660119  RH  074%=      5-min Rain = 0
KBO1 230246Z 14007KT 17/12 A3016 RMK A01 T01650118  RH  074%=      5-min Rain = 0
KBO1 230247Z 14008KT 17/12 A3016 RMK A01 T01650118  RH  074%=      5-min Rain = 0
KBO1 230248Z 14007KT 17/12 A3016 RMK A01 T01650118  RH  074%=      5-min Rain = 0
KBO1 230249Z 14007KT 17/12 A3016 RMK A01 T01650118  RH  074%=      5-min Rain = 0
KBO1 230250Z 14008KT 16/12 A3016 RMK A01 T01640118  RH  074%=      5-min Rain = 0
KBO1 230251Z 14008KT 17/12 A3016 RMK A01 T01650118  RH  074%=      5-min Rain = 0
KBO1 230252Z 14008KT 16/12 A3016 RMK A01 T01640118  RH  074%=      5-min Rain = 0
KBO1 230253Z 14008KT 16/12 A3016 RMK A01 T01640118  RH  074%=      5-min Rain = 0
KBO1 230254Z 14008KT 16/12 A3016 RMK A01 T01640118  RH  074%=      5-min Rain = 0
KBO1 230255Z 15008KT 16/12 A3016 RMK A01 T01640118  RH  075%=      5-min Rain = 0
KBO1 230256Z 15008KT 16/12 A3016 RMK A01 T01630119  RH  075%=      5-min Rain = 0
KBO1 230257Z 15008KT 16/12 A3016 RMK A01 T01630118  RH  075%=      5-min Rain = 0
KBO1 230258Z 15008KT 16/12 A3016 RMK A01 T01640119  RH  075%=      5-min Rain = 0
KBO1 230259Z 15007KT 17/12 A3016 RMK A01 T01650119  RH  074%=      5-min Rain = 0
KBO1 230300Z 14007KT 17/12 A3016 RMK A01 T01650119  RH  074%=      5-min Rain = 0
KBO1 230301Z 15007KT 17/12 A3016 RMK A01 T01650119  RH  074%=      5-min Rain = 0
KBO1 230302Z 15007KT 17/12 A3016 RMK A01 T01650119  RH  074%=      5-min Rain = 0
KBO1 230303Z 15007KT 17/12 A3016 RMK A01 T01650119  RH  074%=      5-min Rain = 0
KBO1 230304Z 15007KT 17/12 A3016 RMK A01 T01650119  RH  074%=      5-min Rain = 0
KBO1 230305Z 15007KT 16/12 A3016 RMK A01 T01640119  RH  075%=      5-min Rain = 0
KBO1 230306Z 15007KT 16/12 A3016 RMK A01 T01630119  RH  075%=      5-min Rain = 0
KBO1 230307Z 15007KT 16/12 A3016 RMK A01 T01620119  RH  075%=      5-min Rain = 0
KBO1 230308Z 15007KT 16/12 A3016 RMK A01 T01610118  RH  076%=      5-min Rain = 0
KBO1 230309Z 15007KT 16/12 A3016 RMK A01 T01600119  RH  076%=      5-min Rain = 0
KBO1 230310Z 15008KT 16/12 A3016 RMK A01 T01590118  RH  077%=      5-min Rain = 0
KBO1 230311Z 15008KT 16/12 A3016 RMK A01 T01590119  RH  077%=      5-min Rain = 0
KBO1 230312Z 15008KT 16/12 A3016 RMK A01 T01590119  RH  077%=      5-min Rain = 0
KBO1 230313Z 15008KT 16/12 A3016 RMK A01 T01590119  RH  077%=      5-min Rain = 0
KBO1 230314Z 15008KT 16/12 A3016 RMK A01 T01590119  RH  077%=      5-min Rain = 0
KBO1 230315Z 15008KT 16/12 A3017 RMK A01 T01610119  RH  076%=      5-min Rain = 0
KBO1 230316Z 14008KT 16/12 A3017 RMK A01 T01630120  RH  076%=      5-min Rain = 0
KBO1 230317Z 14008KT 16/12 A3017 RMK A01 T01630120  RH  076%=      5-min Rain = 0
KBO1 230318Z 14007KT 16/12 A3017 RMK A01 T01630120  RH  076%=      5-min Rain = 0
KBO1 230319Z 13007KT 16/12 A3017 RMK A01 T01620121  RH  076%=      5-min Rain = 0
KBO1 230320Z 13007KT 16/12 A3017 RMK A01 T01620121  RH  077%=      5-min Rain = 0
KBO1 230321Z 13007KT 16/12 A3017 RMK A01 T01610120  RH  077%=      5-min Rain = 0
KBO1 230322Z 13008KT 16/12 A3017 RMK A01 T01600120  RH  077%=      5-min Rain = 0
KBO1 230323Z 13008KT 16/12 A3017 RMK A01 T01590120  RH  078%=      5-min Rain = 0
KBO1 230324Z 14008KT 16/12 A3017 RMK A01 T01590120  RH  078%=      5-min Rain = 0
KBO1 230325Z 14008KT 16/12 A3017 RMK A01 T01590120  RH  078%=      5-min Rain = 0
KBO1 230326Z 14008KT 16/12 A3017 RMK A01 T01590121  RH  078%=      5-min Rain = 0
KBO1 230327Z 14008KT 16/12 A3017 RMK A01 T01590121  RH  078%=      5-min Rain = 0
KBO1 230328Z 13008KT 16/12 A3017 RMK A01 T01590121  RH  078%=      5-min Rain = 0
KBO1 230329Z 14008KT 16/12 A3017 RMK A01 T01580121  RH  078%=      5-min Rain = 0
KBO1 230330Z 14008KT 16/12 A3017 RMK A01 T01580121  RH  079%=      5-min Rain = 0
KBO1 230331Z 14009KT 16/12 A3017 RMK A01 T01580121  RH  079%=      5-min Rain = 0
KBO1 230332Z 14008KT 16/12 A3017 RMK A01 T01570121  RH  079%=      5-min Rain = 0
KBO1 230333Z 14009KT 16/12 A3017 RMK A01 T01570121  RH  079%=      5-min Rain = 0
KBO1 230334Z 14008KT 16/12 A3017 RMK A01 T01570121  RH  079%=      5-min Rain = 0
KBO1 230335Z 14008KT 16/12 A3017 RMK A01 T01570121  RH  079%=      5-min Rain = 0
KBO1 230336Z 14008KT 16/12 A3017 RMK A01 T01570121  RH  079%=      5-min Rain = 0
KBO1 230337Z 14008KT 16/12 A3017 RMK A01 T01560121  RH  079%=      5-min Rain = 0
KBO1 230338Z 14008KT 16/12 A3017 RMK A01 T01560121  RH  080%=      5-min Rain = 0
KBO1 230339Z 14009KT 16/12 A3017 RMK A01 T01560121  RH  080%=      5-min Rain = 0
KBO1 230340Z 14009KT 16/12 A3017 RMK A01 T01550121  RH  080%=      5-min Rain = 0
KBO1 230341Z 14009KT 16/12 A3017 RMK A01 T01550121  RH  080%=      5-min Rain = 0
KBO1 230342Z 14008KT 16/12 A3017 RMK A01 T01550121  RH  080%=      5-min Rain = 0
KBO1 230343Z 15008KT 16/12 A3017 RMK A01 T01550121  RH  080%=      5-min Rain = 0
KBO1 230344Z 15008KT 16/12 A3017 RMK A01 T01560121  RH  080%=      5-min Rain = 0
KBO1 230345Z 15008KT 16/12 A3017 RMK A01 T01550121  RH  080%=      5-min Rain = 0
KBO1 230346Z 15008KT 16/12 A3017 RMK A01 T01560122  RH  080%=      5-min Rain = 0
KBO1 230347Z 15008KT 16/12 A3017 RMK A01 T01550122  RH  080%=      5-min Rain = 0
KBO1 230348Z 15008KT 16/12 A3017 RMK A01 T01550122  RH  081%=      5-min Rain = 0
KBO1 230349Z 15008KT 16/12 A3017 RMK A01 T01550123  RH  081%=      5-min Rain = 0
KBO1 230350Z 15008KT 16/12 A3017 RMK A01 T01550123  RH  081%=      5-min Rain = 0
KBO1 230351Z 15009KT 16/12 A3017 RMK A01 T01550123  RH  081%=      5-min Rain = 0
KBO1 230352Z 15009KT 15/12 A3017 RMK A01 T01540123  RH  082%=      5-min Rain = 0
KBO1 230353Z 15008KT 15/12 A3017 RMK A01 T01540123  RH  082%=      5-min Rain = 0
KBO1 230354Z 14008KT 15/12 A3017 RMK A01 T01540123  RH  081%=      5-min Rain = 0
KBO1 230355Z 14008KT 16/12 A3017 RMK A01 T01550123  RH  081%=      5-min Rain = 0
KBO1 230356Z 14008KT 16/12 A3017 RMK A01 T01550123  RH  081%=      5-min Rain = 0
KBO1 230357Z 14008KT 16/12 A3017 RMK A01 T01550123  RH  082%=      5-min Rain = 0
KBO1 230358Z 14008KT 15/12 A3017 RMK A01 T01540123  RH  082%=      5-min Rain = 0
KBO1 230359Z 14008KT 15/12 A3017 RMK A01 T01530123  RH  082%=      5-min Rain = 0
KBO1 230400Z 14008KT 15/12 A3017 RMK A01 T01530123  RH  082%=      5-min Rain = 0
KBO1 230401Z 14008KT 15/12 A3017 RMK A01 T01530123  RH  082%=      5-min Rain = 0
KBO1 230402Z 14009KT 15/12 A3017 RMK A01 T01530123  RH  082%=      5-min Rain = 0
KBO1 230403Z 14009KT 15/12 A3017 RMK A01 T01530123  RH  082%=      5-min Rain = 0
KBO1 230404Z 14009KT 15/12 A3017 RMK A01 T01530123  RH  082%=      5-min Rain = 0
KBO1 230405Z 14009KT 15/12 A3017 RMK A01 T01540123  RH  082%=      5-min Rain = 0
KBO1 230406Z 14009KT 15/12 A3017 RMK A01 T01540123  RH  082%=      5-min Rain = 0
KBO1 230407Z 14009KT 15/12 A3017 RMK A01 T01540123  RH  082%=      5-min Rain = 0
KBO1 230408Z 15009KT 15/12 A3017 RMK A01 T01540124  RH  082%=      5-min Rain = 0
KBO1 230409Z 15009KT 15/12 A3017 RMK A01 T01530123  RH  082%=      5-min Rain = 0
KBO1 230410Z 14009KT 15/12 A3017 RMK A01 T01540124  RH  082%=      5-min Rain = 0
KBO1 230411Z 14009KT 15/12 A3017 RMK A01 T01540124  RH  082%=      5-min Rain = 0
KBO1 230412Z 14009KT 15/12 A3017 RMK A01 T01530123  RH  082%=      5-min Rain = 0
KBO1 230413Z 14009KT 15/12 A3018 RMK A01 T01530124  RH  082%=      5-min Rain = 0
KBO1 230414Z 14009KT 15/12 A3018 RMK A01 T01530123  RH  083%=      5-min Rain = 0
KBO1 230415Z 14009KT 15/12 A3018 RMK A01 T01530124  RH  083%=      5-min Rain = 0
KBO1 230416Z 14009KT 15/12 A3018 RMK A01 T01520124  RH  083%=      5-min Rain = 0
KBO1 230417Z 14009KT 15/12 A3018 RMK A01 T01520123  RH  083%=      5-min Rain = 0
KBO1 230418Z 14009KT 15/12 A3018 RMK A01 T01520123  RH  083%=      5-min Rain = 0
KBO1 230419Z 14009KT 15/12 A3018 RMK A01 T01520123  RH  083%=      5-min Rain = 0
KBO1 230420Z 14008KT 15/12 A3018 RMK A01 T01520123  RH  083%=      5-min Rain = 0
KBO1 230421Z 14008KT 15/12 A3018 RMK A01 T01520123  RH  083%=      5-min Rain = 0
KBO1 230422Z 14008KT 15/12 A3018 RMK A01 T01520123  RH  083%=      5-min Rain = 0
KBO1 230423Z 14008KT 15/12 A3018 RMK A01 T01510123  RH  083%=      5-min Rain = 0
KBO1 230424Z 14009KT 15/12 A3018 RMK A01 T01510123  RH  084%=      5-min Rain = 0
KBO1 230425Z 15009KT 15/12 A3018 RMK A01 T01500123  RH  084%=      5-min Rain = 0
KBO1 230426Z 15009KT 15/12 A3018 RMK A01 T01490123  RH  085%=      5-min Rain = 0
KBO1 230427Z 15009KT 15/12 A3018 RMK A01 T01490124  RH  085%=      5-min Rain = 0
KBO1 230428Z 15009KT 15/12 A3018 RMK A01 T01490124  RH  085%=      5-min Rain = 0
KBO1 230429Z 15009KT 15/12 A3018 RMK A01 T01490124  RH  085%=      5-min Rain = 0
KBO1 230430Z 15008KT 15/12 A3018 RMK A01 T01490124  RH  085%=      5-min Rain = 0
KBO1 230431Z 15008KT 15/13 A3018 RMK A01 T01490125  RH  085%=      5-min Rain = 0
KBO1 230432Z 15007KT 15/13 A3018 RMK A01 T01480125  RH  086%=      5-min Rain = 0
KBO1 230433Z 15007KT 15/13 A3018 RMK A01 T01480125  RH  086%=      5-min Rain = 0
KBO1 230434Z 15007KT 15/13 A3018 RMK A01 T01470125  RH  086%=      5-min Rain = 0
KBO1 230435Z 15008KT 15/13 A3018 RMK A01 T01470125  RH  087%=      5-min Rain = 0
KBO1 230436Z 15008KT 15/13 A3018 RMK A01 T01460125  RH  087%=      5-min Rain = 0
KBO1 230437Z 15008KT 15/13 A3018 RMK A01 T01460125  RH  087%=      5-min Rain = 0
KBO1 230438Z 15008KT 15/13 A3018 RMK A01 T01460125  RH  087%=      5-min Rain = 0
KBO1 230439Z 15008KT 15/13 A3018 RMK A01 T01460125  RH  087%=      5-min Rain = 0
KBO1 230440Z 14008KT 15/13 A3018 RMK A01 T01460125  RH  087%=      5-min Rain = 0
KBO1 230441Z 15008KT 15/13 A3018 RMK A01 T01460125  RH  087%=      5-min Rain = 0
KBO1 230442Z 14008KT 15/13 A3018 RMK A01 T01470125  RH  087%=      5-min Rain = 0
KBO1 230443Z 15008KT 15/13 A3018 RMK A01 T01470125  RH  086%=      5-min Rain = 0
KBO1 230444Z 15008KT 15/13 A3018 RMK A01 T01470125  RH  086%=      5-min Rain = 0
KBO1 230445Z 15008KT 15/13 A3018 RMK A01 T01480125  RH  086%=      5-min Rain = 0
KBO1 230446Z 15008KT 15/13 A3018 RMK A01 T01480125  RH  086%=      5-min Rain = 0
KBO1 230447Z 15008KT 15/13 A3018 RMK A01 T01480126  RH  087%=      5-min Rain = 0
KBO1 230448Z 15008KT 15/13 A3018 RMK A01 T01480126  RH  087%=      5-min Rain = 0
KBO1 230449Z 15008KT 15/13 A3018 RMK A01 T01480126  RH  087%=      5-min Rain = 0
KBO1 230450Z 15008KT 15/13 A3018 RMK A01 T01480126  RH  087%=      5-min Rain = 0
KBO1 230451Z 15008KT 15/13 A3018 RMK A01 T01480127  RH  087%=      5-min Rain = 0
KBO1 230452Z 15008KT 15/13 A3018 RMK A01 T01490127  RH  087%=      5-min Rain = 0
KBO1 230453Z 15008KT 15/13 A3018 RMK A01 T01490127  RH  087%=      5-min Rain = 0
KBO1 230454Z 15008KT 15/13 A3018 RMK A01 T01490127  RH  087%=      5-min Rain = 0
KBO1 230455Z 15008KT 15/13 A3018 RMK A01 T01490127  RH  087%=      5-min Rain = 0
KBO1 230456Z 15007KT 15/13 A3018 RMK A01 T01490127  RH  087%=      5-min Rain = 0
KBO1 230457Z 15007KT 15/13 A3018 RMK A01 T01490128  RH  087%=      5-min Rain = 0
KBO1 230458Z 16007KT 15/13 A3018 RMK A01 T01480127  RH  087%=      5-min Rain = 0
KBO1 230459Z 16007KT 15/13 A3018 RMK A01 T01480127  RH  087%=      5-min Rain = 0

Page generated in 0.1255 seconds.